<?xml version="1.0" encoding="UTF-8" standalone="no" ?>
<gpx xmlns="http://www.topografix.com/GPX/1/1" xmlns:xsi="http://www.w3.org/2001/XMLSchema-instance" xsi:schemaLocation="http://www.topografix.com/GPX/1/1 http://www.topografix.com/GPX/1/1/gpx.xsd" version="1.1" creator="VisuGPX - https://www.visugpx.com">
  <metadata>
    <name>Gemsa Ski de Rando 2014-03-11 J3 : Refuge Respomuso - Refuge Arremoulit</name>
    <desc><![CDATA[Refuge Respomuso (2200m)
Traversee Sommet S sous le Balaitous SE-SO (3070m)
Ibon Cheilo (2424m)
Ibon de Arriel Alto (2243m)
Col de Palas (2517m)
Refuge d\'Arremoulit (2275m)]]></desc>
  </metadata>
  <trk>
    <name><![CDATA[Gemsa Ski de Rando 2014-03-11 J3 : Refuge Respomuso - Refuge Arremoulit_1]]></name>
    <trkseg>
      <trkpt lat="42.81709" lon="-0.28799">
        <ele>2123.5239257812</ele>
        <time>2014-03-11T07:05:57Z</time>
      </trkpt>
      <trkpt lat="42.81717" lon="-0.28811">
        <ele>2125.6088867188</ele>
        <time>2014-03-11T07:06:27Z</time>
      </trkpt>
      <trkpt lat="42.81726" lon="-0.28809">
        <ele>2126.3168945312</ele>
        <time>2014-03-11T07:06:42Z</time>
      </trkpt>
      <trkpt lat="42.81727" lon="-0.28808">
        <ele>2127.7810058594</ele>
        <time>2014-03-11T07:06:44Z</time>
      </trkpt>
      <trkpt lat="42.81739" lon="-0.28797">
        <ele>2127.0200195312</ele>
        <time>2014-03-11T07:07:04Z</time>
      </trkpt>
      <trkpt lat="42.81741" lon="-0.28792">
        <ele>2126.4909667969</ele>
        <time>2014-03-11T07:07:10Z</time>
      </trkpt>
      <trkpt lat="42.81741" lon="-0.28789">
        <ele>2126.7189941406</ele>
        <time>2014-03-11T07:07:14Z</time>
      </trkpt>
      <trkpt lat="42.81742" lon="-0.28773">
        <ele>2130.2548828125</ele>
        <time>2014-03-11T07:07:30Z</time>
      </trkpt>
      <trkpt lat="42.81742" lon="-0.28773">
        <ele>2130.2570800781</ele>
        <time>2014-03-11T07:07:31Z</time>
      </trkpt>
      <trkpt lat="42.81751" lon="-0.28755">
        <ele>2132.0061035156</ele>
        <time>2014-03-11T07:07:52Z</time>
      </trkpt>
      <trkpt lat="42.81762" lon="-0.2875">
        <ele>2135.16796875</ele>
        <time>2014-03-11T07:08:20Z</time>
      </trkpt>
      <trkpt lat="42.81771" lon="-0.28758">
        <ele>2137.1320800781</ele>
        <time>2014-03-11T07:08:43Z</time>
      </trkpt>
      <trkpt lat="42.81779" lon="-0.28761">
        <ele>2139.6159667969</ele>
        <time>2014-03-11T07:09:00Z</time>
      </trkpt>
      <trkpt lat="42.81789" lon="-0.28751">
        <ele>2143.1020507812</ele>
        <time>2014-03-11T07:09:12Z</time>
      </trkpt>
      <trkpt lat="42.81798" lon="-0.28746">
        <ele>2145.7990722656</ele>
        <time>2014-03-11T07:09:22Z</time>
      </trkpt>
      <trkpt lat="42.81804" lon="-0.28745">
        <ele>2148.1889648438</ele>
        <time>2014-03-11T07:09:29Z</time>
      </trkpt>
      <trkpt lat="42.81805" lon="-0.28746">
        <ele>2148.7419433594</ele>
        <time>2014-03-11T07:09:53Z</time>
      </trkpt>
      <trkpt lat="42.81805" lon="-0.28746">
        <ele>2153.1411132812</ele>
        <time>2014-03-11T07:10:09Z</time>
      </trkpt>
      <trkpt lat="42.81805" lon="-0.28746">
        <ele>2153.1489257812</ele>
        <time>2014-03-11T07:10:10Z</time>
      </trkpt>
      <trkpt lat="42.81805" lon="-0.28746">
        <ele>2150.2749023438</ele>
        <time>2014-03-11T07:10:13Z</time>
      </trkpt>
      <trkpt lat="42.81815" lon="-0.28755">
        <ele>2152.9318847656</ele>
        <time>2014-03-11T07:11:43Z</time>
      </trkpt>
      <trkpt lat="42.81815" lon="-0.28758">
        <ele>2154.2260742188</ele>
        <time>2014-03-11T07:11:59Z</time>
      </trkpt>
      <trkpt lat="42.8182" lon="-0.28753">
        <ele>2156.2700195312</ele>
        <time>2014-03-11T07:13:09Z</time>
      </trkpt>
      <trkpt lat="42.81826" lon="-0.2876">
        <ele>2157.6650390625</ele>
        <time>2014-03-11T07:13:20Z</time>
      </trkpt>
      <trkpt lat="42.81829" lon="-0.28763">
        <ele>2159.4440917969</ele>
        <time>2014-03-11T07:13:25Z</time>
      </trkpt>
      <trkpt lat="42.81833" lon="-0.28762">
        <ele>2162.8449707031</ele>
        <time>2014-03-11T07:13:40Z</time>
      </trkpt>
      <trkpt lat="42.81838" lon="-0.28747">
        <ele>2166.3830566406</ele>
        <time>2014-03-11T07:13:56Z</time>
      </trkpt>
      <trkpt lat="42.81846" lon="-0.28734">
        <ele>2169.416015625</ele>
        <time>2014-03-11T07:14:26Z</time>
      </trkpt>
      <trkpt lat="42.81846" lon="-0.28734">
        <ele>2169.4440917969</ele>
        <time>2014-03-11T07:14:50Z</time>
      </trkpt>
      <trkpt lat="42.81852" lon="-0.28725">
        <ele>2170.4899902344</ele>
        <time>2014-03-11T07:15:42Z</time>
      </trkpt>
      <trkpt lat="42.81857" lon="-0.28714">
        <ele>2171.0639648438</ele>
        <time>2014-03-11T07:15:54Z</time>
      </trkpt>
      <trkpt lat="42.81861" lon="-0.28699">
        <ele>2174.1201171875</ele>
        <time>2014-03-11T07:16:08Z</time>
      </trkpt>
      <trkpt lat="42.81865" lon="-0.28687">
        <ele>2177.3049316406</ele>
        <time>2014-03-11T07:16:22Z</time>
      </trkpt>
      <trkpt lat="42.81873" lon="-0.28679">
        <ele>2180.544921875</ele>
        <time>2014-03-11T07:16:36Z</time>
      </trkpt>
      <trkpt lat="42.81879" lon="-0.28686">
        <ele>2183.7189941406</ele>
        <time>2014-03-11T07:16:48Z</time>
      </trkpt>
      <trkpt lat="42.81882" lon="-0.2868">
        <ele>2185.6030273438</ele>
        <time>2014-03-11T07:17:03Z</time>
      </trkpt>
      <trkpt lat="42.81887" lon="-0.28668">
        <ele>2187.3920898438</ele>
        <time>2014-03-11T07:17:22Z</time>
      </trkpt>
      <trkpt lat="42.81891" lon="-0.28682">
        <ele>2190.5620117188</ele>
        <time>2014-03-11T07:17:38Z</time>
      </trkpt>
      <trkpt lat="42.81895" lon="-0.28694">
        <ele>2193.5590820312</ele>
        <time>2014-03-11T07:17:55Z</time>
      </trkpt>
      <trkpt lat="42.81897" lon="-0.28707">
        <ele>2194.8559570312</ele>
        <time>2014-03-11T07:18:08Z</time>
      </trkpt>
      <trkpt lat="42.81899" lon="-0.28719">
        <ele>2197.5180664062</ele>
        <time>2014-03-11T07:18:22Z</time>
      </trkpt>
      <trkpt lat="42.819" lon="-0.28735">
        <ele>2200.4030761719</ele>
        <time>2014-03-11T07:18:41Z</time>
      </trkpt>
      <trkpt lat="42.81901" lon="-0.28751">
        <ele>2203.7280273438</ele>
        <time>2014-03-11T07:18:59Z</time>
      </trkpt>
      <trkpt lat="42.81905" lon="-0.28765">
        <ele>2206.7299804688</ele>
        <time>2014-03-11T07:19:16Z</time>
      </trkpt>
      <trkpt lat="42.81911" lon="-0.28755">
        <ele>2209.8620605469</ele>
        <time>2014-03-11T07:19:32Z</time>
      </trkpt>
      <trkpt lat="42.8192" lon="-0.28757">
        <ele>2212.4851074219</ele>
        <time>2014-03-11T07:19:49Z</time>
      </trkpt>
      <trkpt lat="42.81925" lon="-0.28749">
        <ele>2215.8759765625</ele>
        <time>2014-03-11T07:20:04Z</time>
      </trkpt>
      <trkpt lat="42.81929" lon="-0.28737">
        <ele>2219.1879882812</ele>
        <time>2014-03-11T07:20:23Z</time>
      </trkpt>
      <trkpt lat="42.81935" lon="-0.28731">
        <ele>2222.2380371094</ele>
        <time>2014-03-11T07:20:39Z</time>
      </trkpt>
      <trkpt lat="42.81942" lon="-0.28716">
        <ele>2225.6398925781</ele>
        <time>2014-03-11T07:21:02Z</time>
      </trkpt>
      <trkpt lat="42.81945" lon="-0.28706">
        <ele>2229.3249511719</ele>
        <time>2014-03-11T07:21:23Z</time>
      </trkpt>
      <trkpt lat="42.81947" lon="-0.28706">
        <ele>2229.2990722656</ele>
        <time>2014-03-11T07:21:42Z</time>
      </trkpt>
      <trkpt lat="42.81954" lon="-0.28722">
        <ele>2231.4780273438</ele>
        <time>2014-03-11T07:22:05Z</time>
      </trkpt>
      <trkpt lat="42.81959" lon="-0.28729">
        <ele>2234.8889160156</ele>
        <time>2014-03-11T07:22:25Z</time>
      </trkpt>
      <trkpt lat="42.81963" lon="-0.28719">
        <ele>2238.0280761719</ele>
        <time>2014-03-11T07:22:42Z</time>
      </trkpt>
      <trkpt lat="42.81963" lon="-0.28719">
        <ele>2238.037109375</ele>
        <time>2014-03-11T07:22:43Z</time>
      </trkpt>
      <trkpt lat="42.81968" lon="-0.28702">
        <ele>2241.1850585938</ele>
        <time>2014-03-11T07:23:05Z</time>
      </trkpt>
      <trkpt lat="42.81967" lon="-0.28701">
        <ele>2241.1950683594</ele>
        <time>2014-03-11T07:23:06Z</time>
      </trkpt>
      <trkpt lat="42.8197" lon="-0.28689">
        <ele>2244.2370605469</ele>
        <time>2014-03-11T07:23:21Z</time>
      </trkpt>
      <trkpt lat="42.81967" lon="-0.28678">
        <ele>2245.5639648438</ele>
        <time>2014-03-11T07:23:58Z</time>
      </trkpt>
      <trkpt lat="42.81967" lon="-0.28674">
        <ele>2247.3540039062</ele>
        <time>2014-03-11T07:24:29Z</time>
      </trkpt>
      <trkpt lat="42.81969" lon="-0.28682">
        <ele>2248.3090820312</ele>
        <time>2014-03-11T07:24:39Z</time>
      </trkpt>
      <trkpt lat="42.81977" lon="-0.28698">
        <ele>2251.1088867188</ele>
        <time>2014-03-11T07:24:57Z</time>
      </trkpt>
      <trkpt lat="42.81984" lon="-0.28715">
        <ele>2253.4970703125</ele>
        <time>2014-03-11T07:25:25Z</time>
      </trkpt>
      <trkpt lat="42.81986" lon="-0.28704">
        <ele>2255.6909179688</ele>
        <time>2014-03-11T07:25:42Z</time>
      </trkpt>
      <trkpt lat="42.81988" lon="-0.28686">
        <ele>2258.7270507812</ele>
        <time>2014-03-11T07:26:03Z</time>
      </trkpt>
      <trkpt lat="42.81989" lon="-0.28677">
        <ele>2262.8540039062</ele>
        <time>2014-03-11T07:26:19Z</time>
      </trkpt>
      <trkpt lat="42.81989" lon="-0.28676">
        <ele>2263.5739746094</ele>
        <time>2014-03-11T07:26:21Z</time>
      </trkpt>
      <trkpt lat="42.81989" lon="-0.28675">
        <ele>2261.9680175781</ele>
        <time>2014-03-11T07:26:23Z</time>
      </trkpt>
      <trkpt lat="42.81994" lon="-0.2868">
        <ele>2260.7380371094</ele>
        <time>2014-03-11T07:26:48Z</time>
      </trkpt>
      <trkpt lat="42.81995" lon="-0.28683">
        <ele>2262.462890625</ele>
        <time>2014-03-11T07:26:51Z</time>
      </trkpt>
      <trkpt lat="42.81997" lon="-0.28689">
        <ele>2263.5148925781</ele>
        <time>2014-03-11T07:26:58Z</time>
      </trkpt>
      <trkpt lat="42.81999" lon="-0.28695">
        <ele>2264.3798828125</ele>
        <time>2014-03-11T07:27:17Z</time>
      </trkpt>
      <trkpt lat="42.82001" lon="-0.28684">
        <ele>2265.7709960938</ele>
        <time>2014-03-11T07:27:33Z</time>
      </trkpt>
      <trkpt lat="42.82001" lon="-0.28673">
        <ele>2268.3601074219</ele>
        <time>2014-03-11T07:27:54Z</time>
      </trkpt>
      <trkpt lat="42.82007" lon="-0.28685">
        <ele>2268.9929199219</ele>
        <time>2014-03-11T07:28:14Z</time>
      </trkpt>
      <trkpt lat="42.82008" lon="-0.28689">
        <ele>2270.6259765625</ele>
        <time>2014-03-11T07:28:42Z</time>
      </trkpt>
      <trkpt lat="42.82008" lon="-0.28684">
        <ele>2271.4609375</ele>
        <time>2014-03-11T07:29:28Z</time>
      </trkpt>
      <trkpt lat="42.82008" lon="-0.2867">
        <ele>2274.5991210938</ele>
        <time>2014-03-11T07:29:45Z</time>
      </trkpt>
      <trkpt lat="42.82008" lon="-0.28656">
        <ele>2277.9350585938</ele>
        <time>2014-03-11T07:30:11Z</time>
      </trkpt>
      <trkpt lat="42.82016" lon="-0.28667">
        <ele>2279.6350097656</ele>
        <time>2014-03-11T07:30:26Z</time>
      </trkpt>
      <trkpt lat="42.82017" lon="-0.28675">
        <ele>2281.1970214844</ele>
        <time>2014-03-11T07:30:44Z</time>
      </trkpt>
      <trkpt lat="42.82018" lon="-0.28667">
        <ele>2283.0539550781</ele>
        <time>2014-03-11T07:31:00Z</time>
      </trkpt>
      <trkpt lat="42.8202" lon="-0.28651">
        <ele>2286.162109375</ele>
        <time>2014-03-11T07:31:21Z</time>
      </trkpt>
      <trkpt lat="42.8202" lon="-0.2863">
        <ele>2289.2370605469</ele>
        <time>2014-03-11T07:31:44Z</time>
      </trkpt>
      <trkpt lat="42.82021" lon="-0.28614">
        <ele>2293.1950683594</ele>
        <time>2014-03-11T07:32:04Z</time>
      </trkpt>
      <trkpt lat="42.82028" lon="-0.28601">
        <ele>2296.5859375</ele>
        <time>2014-03-11T07:32:21Z</time>
      </trkpt>
      <trkpt lat="42.82036" lon="-0.28587">
        <ele>2299.7370605469</ele>
        <time>2014-03-11T07:32:41Z</time>
      </trkpt>
      <trkpt lat="42.82044" lon="-0.2857">
        <ele>2303.4899902344</ele>
        <time>2014-03-11T07:33:02Z</time>
      </trkpt>
      <trkpt lat="42.82053" lon="-0.28549">
        <ele>2306.5959472656</ele>
        <time>2014-03-11T07:33:23Z</time>
      </trkpt>
      <trkpt lat="42.82052" lon="-0.28546">
        <ele>2305.8439941406</ele>
        <time>2014-03-11T07:33:46Z</time>
      </trkpt>
      <trkpt lat="42.82052" lon="-0.28546">
        <ele>2309.0061035156</ele>
        <time>2014-03-11T07:38:12Z</time>
      </trkpt>
      <trkpt lat="42.82052" lon="-0.28545">
        <ele>2307.4060058594</ele>
        <time>2014-03-11T07:39:53Z</time>
      </trkpt>
      <trkpt lat="42.82052" lon="-0.28545">
        <ele>2310.7241210938</ele>
        <time>2014-03-11T07:39:54Z</time>
      </trkpt>
      <trkpt lat="42.82052" lon="-0.28545">
        <ele>2309.251953125</ele>
        <time>2014-03-11T07:39:55Z</time>
      </trkpt>
      <trkpt lat="42.82056" lon="-0.28547">
        <ele>2310.9919433594</ele>
        <time>2014-03-11T07:40:47Z</time>
      </trkpt>
      <trkpt lat="42.82065" lon="-0.28546">
        <ele>2312.8100585938</ele>
        <time>2014-03-11T07:41:06Z</time>
      </trkpt>
      <trkpt lat="42.82076" lon="-0.28546">
        <ele>2315.8349609375</ele>
        <time>2014-03-11T07:41:23Z</time>
      </trkpt>
      <trkpt lat="42.82089" lon="-0.28547">
        <ele>2318.7390136719</ele>
        <time>2014-03-11T07:41:45Z</time>
      </trkpt>
      <trkpt lat="42.82096" lon="-0.28552">
        <ele>2321.4150390625</ele>
        <time>2014-03-11T07:42:09Z</time>
      </trkpt>
      <trkpt lat="42.82106" lon="-0.28554">
        <ele>2324.4450683594</ele>
        <time>2014-03-11T07:42:27Z</time>
      </trkpt>
      <trkpt lat="42.82101" lon="-0.28564">
        <ele>2325.5720214844</ele>
        <time>2014-03-11T07:42:44Z</time>
      </trkpt>
      <trkpt lat="42.8209" lon="-0.2857">
        <ele>2328.1870117188</ele>
        <time>2014-03-11T07:43:04Z</time>
      </trkpt>
      <trkpt lat="42.82084" lon="-0.28571">
        <ele>2329.5810546875</ele>
        <time>2014-03-11T07:43:22Z</time>
      </trkpt>
      <trkpt lat="42.82084" lon="-0.28571">
        <ele>2331.5048828125</ele>
        <time>2014-03-11T07:43:31Z</time>
      </trkpt>
      <trkpt lat="42.82084" lon="-0.28583">
        <ele>2333.2280273438</ele>
        <time>2014-03-11T07:44:05Z</time>
      </trkpt>
      <trkpt lat="42.82091" lon="-0.28584">
        <ele>2336.5529785156</ele>
        <time>2014-03-11T07:44:21Z</time>
      </trkpt>
      <trkpt lat="42.82097" lon="-0.28598">
        <ele>2339.8859863281</ele>
        <time>2014-03-11T07:44:39Z</time>
      </trkpt>
      <trkpt lat="42.82105" lon="-0.28615">
        <ele>2342.7041015625</ele>
        <time>2014-03-11T07:45:04Z</time>
      </trkpt>
      <trkpt lat="42.82112" lon="-0.28623">
        <ele>2345.837890625</ele>
        <time>2014-03-11T07:45:25Z</time>
      </trkpt>
      <trkpt lat="42.82115" lon="-0.28625">
        <ele>2346.751953125</ele>
        <time>2014-03-11T07:45:43Z</time>
      </trkpt>
      <trkpt lat="42.82103" lon="-0.28631">
        <ele>2349.8510742188</ele>
        <time>2014-03-11T07:46:03Z</time>
      </trkpt>
      <trkpt lat="42.82097" lon="-0.28642">
        <ele>2353.2890625</ele>
        <time>2014-03-11T07:46:23Z</time>
      </trkpt>
      <trkpt lat="42.82093" lon="-0.28656">
        <ele>2356.5639648438</ele>
        <time>2014-03-11T07:46:42Z</time>
      </trkpt>
      <trkpt lat="42.82094" lon="-0.28663">
        <ele>2358.0358886719</ele>
        <time>2014-03-11T07:46:52Z</time>
      </trkpt>
      <trkpt lat="42.82093" lon="-0.28676">
        <ele>2359.3029785156</ele>
        <time>2014-03-11T07:47:18Z</time>
      </trkpt>
      <trkpt lat="42.82096" lon="-0.28676">
        <ele>2360.7229003906</ele>
        <time>2014-03-11T07:47:34Z</time>
      </trkpt>
      <trkpt lat="42.82099" lon="-0.28674">
        <ele>2361.9360351562</ele>
        <time>2014-03-11T07:47:39Z</time>
      </trkpt>
      <trkpt lat="42.82107" lon="-0.2867">
        <ele>2363.87890625</ele>
        <time>2014-03-11T07:47:55Z</time>
      </trkpt>
      <trkpt lat="42.82114" lon="-0.28669">
        <ele>2365.5759277344</ele>
        <time>2014-03-11T07:48:09Z</time>
      </trkpt>
      <trkpt lat="42.82124" lon="-0.28668">
        <ele>2368.1040039062</ele>
        <time>2014-03-11T07:49:14Z</time>
      </trkpt>
      <trkpt lat="42.82133" lon="-0.28666">
        <ele>2371.2509765625</ele>
        <time>2014-03-11T07:49:34Z</time>
      </trkpt>
      <trkpt lat="42.8214" lon="-0.28668">
        <ele>2373.3859863281</ele>
        <time>2014-03-11T07:49:52Z</time>
      </trkpt>
      <trkpt lat="42.82131" lon="-0.28684">
        <ele>2376.8500976562</ele>
        <time>2014-03-11T07:50:13Z</time>
      </trkpt>
      <trkpt lat="42.82125" lon="-0.28696">
        <ele>2379.9970703125</ele>
        <time>2014-03-11T07:50:33Z</time>
      </trkpt>
      <trkpt lat="42.82129" lon="-0.28699">
        <ele>2381.6970214844</ele>
        <time>2014-03-11T07:50:51Z</time>
      </trkpt>
      <trkpt lat="42.8213" lon="-0.287">
        <ele>2383.0581054688</ele>
        <time>2014-03-11T07:50:53Z</time>
      </trkpt>
      <trkpt lat="42.82145" lon="-0.28701">
        <ele>2386.6499023438</ele>
        <time>2014-03-11T07:51:17Z</time>
      </trkpt>
      <trkpt lat="42.82146" lon="-0.28701">
        <ele>2387.3830566406</ele>
        <time>2014-03-11T07:51:19Z</time>
      </trkpt>
      <trkpt lat="42.82153" lon="-0.28698">
        <ele>2389.2719726562</ele>
        <time>2014-03-11T07:51:33Z</time>
      </trkpt>
      <trkpt lat="42.82164" lon="-0.28696">
        <ele>2392.3549804688</ele>
        <time>2014-03-11T07:51:52Z</time>
      </trkpt>
      <trkpt lat="42.82172" lon="-0.28706">
        <ele>2394.3740234375</ele>
        <time>2014-03-11T07:52:12Z</time>
      </trkpt>
      <trkpt lat="42.82171" lon="-0.28719">
        <ele>2397.5329589844</ele>
        <time>2014-03-11T07:52:32Z</time>
      </trkpt>
      <trkpt lat="42.82167" lon="-0.28731">
        <ele>2400.2729492188</ele>
        <time>2014-03-11T07:52:53Z</time>
      </trkpt>
      <trkpt lat="42.82161" lon="-0.28741">
        <ele>2403.6750488281</ele>
        <time>2014-03-11T07:53:09Z</time>
      </trkpt>
      <trkpt lat="42.82153" lon="-0.28751">
        <ele>2406.3029785156</ele>
        <time>2014-03-11T07:53:31Z</time>
      </trkpt>
      <trkpt lat="42.82143" lon="-0.28763">
        <ele>2409.3530273438</ele>
        <time>2014-03-11T07:53:50Z</time>
      </trkpt>
      <trkpt lat="42.82139" lon="-0.28771">
        <ele>2412.4499511719</ele>
        <time>2014-03-11T07:54:09Z</time>
      </trkpt>
      <trkpt lat="42.82135" lon="-0.28781">
        <ele>2414.9519042969</ele>
        <time>2014-03-11T07:54:36Z</time>
      </trkpt>
      <trkpt lat="42.82146" lon="-0.28777">
        <ele>2417.41796875</ele>
        <time>2014-03-11T07:54:53Z</time>
      </trkpt>
      <trkpt lat="42.82157" lon="-0.2878">
        <ele>2420.4829101562</ele>
        <time>2014-03-11T07:55:14Z</time>
      </trkpt>
      <trkpt lat="42.82164" lon="-0.28783">
        <ele>2421.2380371094</ele>
        <time>2014-03-11T07:55:29Z</time>
      </trkpt>
      <trkpt lat="42.82173" lon="-0.2879">
        <ele>2424.2849121094</ele>
        <time>2014-03-11T07:55:49Z</time>
      </trkpt>
      <trkpt lat="42.82181" lon="-0.28791">
        <ele>2427.3149414062</ele>
        <time>2014-03-11T07:56:05Z</time>
      </trkpt>
      <trkpt lat="42.82188" lon="-0.28787">
        <ele>2427.9370117188</ele>
        <time>2014-03-11T07:56:30Z</time>
      </trkpt>
      <trkpt lat="42.82186" lon="-0.28795">
        <ele>2430.2561035156</ele>
        <time>2014-03-11T07:58:11Z</time>
      </trkpt>
      <trkpt lat="42.82183" lon="-0.28812">
        <ele>2432.9089355469</ele>
        <time>2014-03-11T07:58:30Z</time>
      </trkpt>
      <trkpt lat="42.8218" lon="-0.28824">
        <ele>2435.7629394531</ele>
        <time>2014-03-11T07:58:46Z</time>
      </trkpt>
      <trkpt lat="42.82173" lon="-0.28838">
        <ele>2438.8740234375</ele>
        <time>2014-03-11T07:59:05Z</time>
      </trkpt>
      <trkpt lat="42.82173" lon="-0.28843">
        <ele>2441.4050292969</ele>
        <time>2014-03-11T07:59:11Z</time>
      </trkpt>
      <trkpt lat="42.82179" lon="-0.28859">
        <ele>2443.9270019531</ele>
        <time>2014-03-11T07:59:37Z</time>
      </trkpt>
      <trkpt lat="42.82174" lon="-0.28872">
        <ele>2447.3000488281</ele>
        <time>2014-03-11T07:59:54Z</time>
      </trkpt>
      <trkpt lat="42.82169" lon="-0.28889">
        <ele>2450.3239746094</ele>
        <time>2014-03-11T08:00:15Z</time>
      </trkpt>
      <trkpt lat="42.82166" lon="-0.28902">
        <ele>2453.5700683594</ele>
        <time>2014-03-11T08:00:31Z</time>
      </trkpt>
      <trkpt lat="42.8217" lon="-0.28903">
        <ele>2455.1140136719</ele>
        <time>2014-03-11T08:00:50Z</time>
      </trkpt>
      <trkpt lat="42.82182" lon="-0.28897">
        <ele>2458.4609375</ele>
        <time>2014-03-11T08:01:10Z</time>
      </trkpt>
      <trkpt lat="42.82196" lon="-0.28891">
        <ele>2461.4951171875</ele>
        <time>2014-03-11T08:01:31Z</time>
      </trkpt>
      <trkpt lat="42.82207" lon="-0.28887">
        <ele>2464.5339355469</ele>
        <time>2014-03-11T08:01:52Z</time>
      </trkpt>
      <trkpt lat="42.82214" lon="-0.28883">
        <ele>2467.5900878906</ele>
        <time>2014-03-11T08:02:10Z</time>
      </trkpt>
      <trkpt lat="42.82215" lon="-0.28883">
        <ele>2468.6110839844</ele>
        <time>2014-03-11T08:02:12Z</time>
      </trkpt>
      <trkpt lat="42.82222" lon="-0.28881">
        <ele>2470.1079101562</ele>
        <time>2014-03-11T08:02:28Z</time>
      </trkpt>
      <trkpt lat="42.82222" lon="-0.28884">
        <ele>2470.9370117188</ele>
        <time>2014-03-11T08:02:44Z</time>
      </trkpt>
      <trkpt lat="42.82219" lon="-0.28898">
        <ele>2474.1320800781</ele>
        <time>2014-03-11T08:02:59Z</time>
      </trkpt>
      <trkpt lat="42.82219" lon="-0.28917">
        <ele>2477.5629882812</ele>
        <time>2014-03-11T08:03:25Z</time>
      </trkpt>
      <trkpt lat="42.82225" lon="-0.28925">
        <ele>2479.0729980469</ele>
        <time>2014-03-11T08:03:42Z</time>
      </trkpt>
      <trkpt lat="42.82234" lon="-0.28929">
        <ele>2481.5700683594</ele>
        <time>2014-03-11T08:03:59Z</time>
      </trkpt>
      <trkpt lat="42.82236" lon="-0.28927">
        <ele>2483.1740722656</ele>
        <time>2014-03-11T08:04:15Z</time>
      </trkpt>
      <trkpt lat="42.82236" lon="-0.28927">
        <ele>2483.3940429688</ele>
        <time>2014-03-11T08:04:46Z</time>
      </trkpt>
      <trkpt lat="42.82243" lon="-0.28926">
        <ele>2484.5209960938</ele>
        <time>2014-03-11T08:05:00Z</time>
      </trkpt>
      <trkpt lat="42.82245" lon="-0.28926">
        <ele>2484.1799316406</ele>
        <time>2014-03-11T08:06:03Z</time>
      </trkpt>
      <trkpt lat="42.82245" lon="-0.28926">
        <ele>2482.8269042969</ele>
        <time>2014-03-11T08:06:05Z</time>
      </trkpt>
      <trkpt lat="42.82253" lon="-0.28924">
        <ele>2486.0390625</ele>
        <time>2014-03-11T08:06:56Z</time>
      </trkpt>
      <trkpt lat="42.82264" lon="-0.28921">
        <ele>2488.9189453125</ele>
        <time>2014-03-11T08:07:14Z</time>
      </trkpt>
      <trkpt lat="42.8227" lon="-0.28933">
        <ele>2491.0180664062</ele>
        <time>2014-03-11T08:07:31Z</time>
      </trkpt>
      <trkpt lat="42.82272" lon="-0.28934">
        <ele>2492.2580566406</ele>
        <time>2014-03-11T08:07:34Z</time>
      </trkpt>
      <trkpt lat="42.82278" lon="-0.28948">
        <ele>2493.837890625</ele>
        <time>2014-03-11T08:07:52Z</time>
      </trkpt>
      <trkpt lat="42.82285" lon="-0.28939">
        <ele>2496.0930175781</ele>
        <time>2014-03-11T08:08:14Z</time>
      </trkpt>
      <trkpt lat="42.8229" lon="-0.28938">
        <ele>2499.1440429688</ele>
        <time>2014-03-11T08:08:26Z</time>
      </trkpt>
      <trkpt lat="42.82295" lon="-0.28948">
        <ele>2502.2858886719</ele>
        <time>2014-03-11T08:08:39Z</time>
      </trkpt>
      <trkpt lat="42.82304" lon="-0.28965">
        <ele>2505.0329589844</ele>
        <time>2014-03-11T08:09:06Z</time>
      </trkpt>
      <trkpt lat="42.82312" lon="-0.28958">
        <ele>2507.1489257812</ele>
        <time>2014-03-11T08:09:28Z</time>
      </trkpt>
      <trkpt lat="42.8232" lon="-0.28945">
        <ele>2510.0900878906</ele>
        <time>2014-03-11T08:09:52Z</time>
      </trkpt>
      <trkpt lat="42.82327" lon="-0.28952">
        <ele>2512.6909179688</ele>
        <time>2014-03-11T08:10:09Z</time>
      </trkpt>
      <trkpt lat="42.82333" lon="-0.28965">
        <ele>2515.6940917969</ele>
        <time>2014-03-11T08:10:30Z</time>
      </trkpt>
      <trkpt lat="42.8234" lon="-0.28977">
        <ele>2519.0700683594</ele>
        <time>2014-03-11T08:10:51Z</time>
      </trkpt>
      <trkpt lat="42.82343" lon="-0.28983">
        <ele>2521.8100585938</ele>
        <time>2014-03-11T08:11:00Z</time>
      </trkpt>
      <trkpt lat="42.82344" lon="-0.28982">
        <ele>2520.3159179688</ele>
        <time>2014-03-11T08:11:07Z</time>
      </trkpt>
      <trkpt lat="42.8235" lon="-0.28969">
        <ele>2522.0310058594</ele>
        <time>2014-03-11T08:11:26Z</time>
      </trkpt>
      <trkpt lat="42.8235" lon="-0.28968">
        <ele>2522.0358886719</ele>
        <time>2014-03-11T08:11:27Z</time>
      </trkpt>
      <trkpt lat="42.82354" lon="-0.2896">
        <ele>2525.0700683594</ele>
        <time>2014-03-11T08:11:40Z</time>
      </trkpt>
      <trkpt lat="42.82363" lon="-0.28958">
        <ele>2527.8120117188</ele>
        <time>2014-03-11T08:12:03Z</time>
      </trkpt>
      <trkpt lat="42.82372" lon="-0.28966">
        <ele>2530.1721191406</ele>
        <time>2014-03-11T08:12:19Z</time>
      </trkpt>
      <trkpt lat="42.82378" lon="-0.28976">
        <ele>2532.3330078125</ele>
        <time>2014-03-11T08:12:34Z</time>
      </trkpt>
      <trkpt lat="42.82384" lon="-0.28984">
        <ele>2533.49609375</ele>
        <time>2014-03-11T08:12:49Z</time>
      </trkpt>
      <trkpt lat="42.82387" lon="-0.28983">
        <ele>2535.1870117188</ele>
        <time>2014-03-11T08:13:05Z</time>
      </trkpt>
      <trkpt lat="42.82385" lon="-0.28983">
        <ele>2534.8920898438</ele>
        <time>2014-03-11T08:13:40Z</time>
      </trkpt>
      <trkpt lat="42.82385" lon="-0.28982">
        <ele>2535.4870605469</ele>
        <time>2014-03-11T08:13:59Z</time>
      </trkpt>
      <trkpt lat="42.82385" lon="-0.28981">
        <ele>2535.2309570312</ele>
        <time>2014-03-11T08:14:52Z</time>
      </trkpt>
      <trkpt lat="42.82391" lon="-0.28983">
        <ele>2536.6918945312</ele>
        <time>2014-03-11T08:15:09Z</time>
      </trkpt>
      <trkpt lat="42.82398" lon="-0.28989">
        <ele>2539.8239746094</ele>
        <time>2014-03-11T08:15:27Z</time>
      </trkpt>
      <trkpt lat="42.82405" lon="-0.28993">
        <ele>2541.5720214844</ele>
        <time>2014-03-11T08:15:44Z</time>
      </trkpt>
      <trkpt lat="42.82405" lon="-0.28989">
        <ele>2542.623046875</ele>
        <time>2014-03-11T08:15:51Z</time>
      </trkpt>
      <trkpt lat="42.82406" lon="-0.28976">
        <ele>2546.0139160156</ele>
        <time>2014-03-11T08:16:11Z</time>
      </trkpt>
      <trkpt lat="42.82412" lon="-0.28967">
        <ele>2548.9450683594</ele>
        <time>2014-03-11T08:16:34Z</time>
      </trkpt>
      <trkpt lat="42.82421" lon="-0.28981">
        <ele>2551.8100585938</ele>
        <time>2014-03-11T08:17:01Z</time>
      </trkpt>
      <trkpt lat="42.82425" lon="-0.28977">
        <ele>2553.9089355469</ele>
        <time>2014-03-11T08:17:19Z</time>
      </trkpt>
      <trkpt lat="42.82426" lon="-0.28964">
        <ele>2557.16796875</ele>
        <time>2014-03-11T08:17:41Z</time>
      </trkpt>
      <trkpt lat="42.82428" lon="-0.28943">
        <ele>2560.5229492188</ele>
        <time>2014-03-11T08:18:12Z</time>
      </trkpt>
      <trkpt lat="42.82434" lon="-0.28952">
        <ele>2562.5048828125</ele>
        <time>2014-03-11T08:18:28Z</time>
      </trkpt>
      <trkpt lat="42.82442" lon="-0.2896">
        <ele>2565.2509765625</ele>
        <time>2014-03-11T08:18:50Z</time>
      </trkpt>
      <trkpt lat="42.82449" lon="-0.28963">
        <ele>2568.3020019531</ele>
        <time>2014-03-11T08:19:09Z</time>
      </trkpt>
      <trkpt lat="42.82456" lon="-0.28958">
        <ele>2571.54296875</ele>
        <time>2014-03-11T08:19:32Z</time>
      </trkpt>
      <trkpt lat="42.82464" lon="-0.28964">
        <ele>2574.6608886719</ele>
        <time>2014-03-11T08:19:53Z</time>
      </trkpt>
      <trkpt lat="42.82473" lon="-0.28977">
        <ele>2576.9799804688</ele>
        <time>2014-03-11T08:20:17Z</time>
      </trkpt>
      <trkpt lat="42.82478" lon="-0.28995">
        <ele>2580.0419921875</ele>
        <time>2014-03-11T08:20:44Z</time>
      </trkpt>
      <trkpt lat="42.82479" lon="-0.29008">
        <ele>2583.3830566406</ele>
        <time>2014-03-11T08:21:07Z</time>
      </trkpt>
      <trkpt lat="42.82481" lon="-0.29019">
        <ele>2585.7919921875</ele>
        <time>2014-03-11T08:21:31Z</time>
      </trkpt>
      <trkpt lat="42.82484" lon="-0.29009">
        <ele>2588.9919433594</ele>
        <time>2014-03-11T08:21:45Z</time>
      </trkpt>
      <trkpt lat="42.82492" lon="-0.28995">
        <ele>2591.2770996094</ele>
        <time>2014-03-11T08:22:10Z</time>
      </trkpt>
      <trkpt lat="42.82494" lon="-0.28984">
        <ele>2594.3540039062</ele>
        <time>2014-03-11T08:22:29Z</time>
      </trkpt>
      <trkpt lat="42.82498" lon="-0.28993">
        <ele>2595.6149902344</ele>
        <time>2014-03-11T08:22:42Z</time>
      </trkpt>
      <trkpt lat="42.82502" lon="-0.29004">
        <ele>2598.0720214844</ele>
        <time>2014-03-11T08:22:59Z</time>
      </trkpt>
      <trkpt lat="42.82506" lon="-0.29014">
        <ele>2599.5668945312</ele>
        <time>2014-03-11T08:23:20Z</time>
      </trkpt>
      <trkpt lat="42.82508" lon="-0.29007">
        <ele>2600.7429199219</ele>
        <time>2014-03-11T08:23:33Z</time>
      </trkpt>
      <trkpt lat="42.82512" lon="-0.28999">
        <ele>2604.2170410156</ele>
        <time>2014-03-11T08:23:47Z</time>
      </trkpt>
      <trkpt lat="42.82518" lon="-0.28985">
        <ele>2606.4599609375</ele>
        <time>2014-03-11T08:24:14Z</time>
      </trkpt>
      <trkpt lat="42.82521" lon="-0.28989">
        <ele>2609.3081054688</ele>
        <time>2014-03-11T08:24:28Z</time>
      </trkpt>
      <trkpt lat="42.82528" lon="-0.29003">
        <ele>2612.1579589844</ele>
        <time>2014-03-11T08:24:52Z</time>
      </trkpt>
      <trkpt lat="42.82534" lon="-0.29011">
        <ele>2615.5920410156</ele>
        <time>2014-03-11T08:25:10Z</time>
      </trkpt>
      <trkpt lat="42.82537" lon="-0.29012">
        <ele>2617.1970214844</ele>
        <time>2014-03-11T08:25:35Z</time>
      </trkpt>
      <trkpt lat="42.82536" lon="-0.29008">
        <ele>2615.0920410156</ele>
        <time>2014-03-11T08:26:07Z</time>
      </trkpt>
      <trkpt lat="42.82539" lon="-0.29009">
        <ele>2615.4150390625</ele>
        <time>2014-03-11T08:26:35Z</time>
      </trkpt>
      <trkpt lat="42.8254" lon="-0.29009">
        <ele>2616.6840820312</ele>
        <time>2014-03-11T08:26:37Z</time>
      </trkpt>
      <trkpt lat="42.82541" lon="-0.29006">
        <ele>2617.712890625</ele>
        <time>2014-03-11T08:26:53Z</time>
      </trkpt>
      <trkpt lat="42.82547" lon="-0.29002">
        <ele>2618.6000976562</ele>
        <time>2014-03-11T08:28:28Z</time>
      </trkpt>
      <trkpt lat="42.82557" lon="-0.28999">
        <ele>2621.9780273438</ele>
        <time>2014-03-11T08:28:50Z</time>
      </trkpt>
      <trkpt lat="42.82566" lon="-0.29014">
        <ele>2624.8940429688</ele>
        <time>2014-03-11T08:29:17Z</time>
      </trkpt>
      <trkpt lat="42.8257" lon="-0.29004">
        <ele>2626.9069824219</ele>
        <time>2014-03-11T08:29:37Z</time>
      </trkpt>
      <trkpt lat="42.82572" lon="-0.28995">
        <ele>2628.0549316406</ele>
        <time>2014-03-11T08:30:00Z</time>
      </trkpt>
      <trkpt lat="42.82576" lon="-0.28978">
        <ele>2631.8999023438</ele>
        <time>2014-03-11T08:30:21Z</time>
      </trkpt>
      <trkpt lat="42.82582" lon="-0.28973">
        <ele>2632.7849121094</ele>
        <time>2014-03-11T08:30:35Z</time>
      </trkpt>
      <trkpt lat="42.8259" lon="-0.28985">
        <ele>2636.1469726562</ele>
        <time>2014-03-11T08:30:56Z</time>
      </trkpt>
      <trkpt lat="42.82598" lon="-0.29">
        <ele>2639.2180175781</ele>
        <time>2014-03-11T08:31:23Z</time>
      </trkpt>
      <trkpt lat="42.82601" lon="-0.29011">
        <ele>2642.2810058594</ele>
        <time>2014-03-11T08:31:40Z</time>
      </trkpt>
      <trkpt lat="42.82603" lon="-0.29003">
        <ele>2644.75390625</ele>
        <time>2014-03-11T08:31:53Z</time>
      </trkpt>
      <trkpt lat="42.82611" lon="-0.29004">
        <ele>2647.9221191406</ele>
        <time>2014-03-11T08:32:14Z</time>
      </trkpt>
      <trkpt lat="42.82623" lon="-0.29015">
        <ele>2651.2939453125</ele>
        <time>2014-03-11T08:32:40Z</time>
      </trkpt>
      <trkpt lat="42.82632" lon="-0.2902">
        <ele>2654.2529296875</ele>
        <time>2014-03-11T08:33:02Z</time>
      </trkpt>
      <trkpt lat="42.82642" lon="-0.29034">
        <ele>2657.3920898438</ele>
        <time>2014-03-11T08:33:31Z</time>
      </trkpt>
      <trkpt lat="42.82645" lon="-0.2903">
        <ele>2659.4370117188</ele>
        <time>2014-03-11T08:33:44Z</time>
      </trkpt>
      <trkpt lat="42.82657" lon="-0.29028">
        <ele>2661.4650878906</ele>
        <time>2014-03-11T08:34:07Z</time>
      </trkpt>
      <trkpt lat="42.82661" lon="-0.29039">
        <ele>2664.7749023438</ele>
        <time>2014-03-11T08:34:27Z</time>
      </trkpt>
      <trkpt lat="42.82667" lon="-0.29044">
        <ele>2668.0200195312</ele>
        <time>2014-03-11T08:34:47Z</time>
      </trkpt>
      <trkpt lat="42.82679" lon="-0.29035">
        <ele>2671.580078125</ele>
        <time>2014-03-11T08:35:13Z</time>
      </trkpt>
      <trkpt lat="42.82687" lon="-0.29038">
        <ele>2674.8100585938</ele>
        <time>2014-03-11T08:35:34Z</time>
      </trkpt>
      <trkpt lat="42.82692" lon="-0.29046">
        <ele>2677.1940917969</ele>
        <time>2014-03-11T08:35:58Z</time>
      </trkpt>
      <trkpt lat="42.82705" lon="-0.29032">
        <ele>2680.3469238281</ele>
        <time>2014-03-11T08:36:31Z</time>
      </trkpt>
      <trkpt lat="42.8271" lon="-0.29024">
        <ele>2683.4260253906</ele>
        <time>2014-03-11T08:36:52Z</time>
      </trkpt>
      <trkpt lat="42.82715" lon="-0.29034">
        <ele>2686.5419921875</ele>
        <time>2014-03-11T08:37:09Z</time>
      </trkpt>
      <trkpt lat="42.82718" lon="-0.29049">
        <ele>2688.9079589844</ele>
        <time>2014-03-11T08:37:30Z</time>
      </trkpt>
      <trkpt lat="42.82722" lon="-0.29062">
        <ele>2692.0190429688</ele>
        <time>2014-03-11T08:37:52Z</time>
      </trkpt>
      <trkpt lat="42.82729" lon="-0.29062">
        <ele>2695.1279296875</ele>
        <time>2014-03-11T08:38:15Z</time>
      </trkpt>
      <trkpt lat="42.8274" lon="-0.29055">
        <ele>2698.4860839844</ele>
        <time>2014-03-11T08:38:41Z</time>
      </trkpt>
      <trkpt lat="42.82747" lon="-0.29067">
        <ele>2702.1889648438</ele>
        <time>2014-03-11T08:39:04Z</time>
      </trkpt>
      <trkpt lat="42.8275" lon="-0.2907">
        <ele>2704.1459960938</ele>
        <time>2014-03-11T08:39:27Z</time>
      </trkpt>
      <trkpt lat="42.82753" lon="-0.2906">
        <ele>2706.3439941406</ele>
        <time>2014-03-11T08:39:41Z</time>
      </trkpt>
      <trkpt lat="42.82758" lon="-0.29047">
        <ele>2709.3879394531</ele>
        <time>2014-03-11T08:40:04Z</time>
      </trkpt>
      <trkpt lat="42.82761" lon="-0.29037">
        <ele>2712.6530761719</ele>
        <time>2014-03-11T08:40:21Z</time>
      </trkpt>
      <trkpt lat="42.82762" lon="-0.29032">
        <ele>2716.4470214844</ele>
        <time>2014-03-11T08:40:32Z</time>
      </trkpt>
      <trkpt lat="42.82763" lon="-0.29009">
        <ele>2718.0700683594</ele>
        <time>2014-03-11T08:41:11Z</time>
      </trkpt>
      <trkpt lat="42.82765" lon="-0.28998">
        <ele>2721.6499023438</ele>
        <time>2014-03-11T08:41:30Z</time>
      </trkpt>
      <trkpt lat="42.82766" lon="-0.28982">
        <ele>2724.669921875</ele>
        <time>2014-03-11T08:41:56Z</time>
      </trkpt>
      <trkpt lat="42.82769" lon="-0.28969">
        <ele>2728.1279296875</ele>
        <time>2014-03-11T08:42:19Z</time>
      </trkpt>
      <trkpt lat="42.8277" lon="-0.28965">
        <ele>2729.1970214844</ele>
        <time>2014-03-11T08:42:25Z</time>
      </trkpt>
      <trkpt lat="42.82772" lon="-0.28964">
        <ele>2730.3010253906</ele>
        <time>2014-03-11T08:42:45Z</time>
      </trkpt>
      <trkpt lat="42.82782" lon="-0.28979">
        <ele>2732.8459472656</ele>
        <time>2014-03-11T08:43:16Z</time>
      </trkpt>
      <trkpt lat="42.8279" lon="-0.28991">
        <ele>2735.9528808594</ele>
        <time>2014-03-11T08:43:40Z</time>
      </trkpt>
      <trkpt lat="42.82795" lon="-0.28995">
        <ele>2738.3588867188</ele>
        <time>2014-03-11T08:43:59Z</time>
      </trkpt>
      <trkpt lat="42.82795" lon="-0.28986">
        <ele>2740.0280761719</ele>
        <time>2014-03-11T08:44:13Z</time>
      </trkpt>
      <trkpt lat="42.82795" lon="-0.28975">
        <ele>2743.6530761719</ele>
        <time>2014-03-11T08:44:29Z</time>
      </trkpt>
      <trkpt lat="42.82797" lon="-0.28962">
        <ele>2745.1909179688</ele>
        <time>2014-03-11T08:44:51Z</time>
      </trkpt>
      <trkpt lat="42.828" lon="-0.28957">
        <ele>2748.1989746094</ele>
        <time>2014-03-11T08:45:01Z</time>
      </trkpt>
      <trkpt lat="42.82803" lon="-0.2894">
        <ele>2752.0229492188</ele>
        <time>2014-03-11T08:45:26Z</time>
      </trkpt>
      <trkpt lat="42.82804" lon="-0.28934">
        <ele>2755.0590820312</ele>
        <time>2014-03-11T08:45:38Z</time>
      </trkpt>
      <trkpt lat="42.82804" lon="-0.28933">
        <ele>2755.0590820312</ele>
        <time>2014-03-11T08:45:39Z</time>
      </trkpt>
      <trkpt lat="42.82818" lon="-0.28913">
        <ele>2757.2160644531</ele>
        <time>2014-03-11T08:46:20Z</time>
      </trkpt>
      <trkpt lat="42.82827" lon="-0.28905">
        <ele>2760.2290039062</ele>
        <time>2014-03-11T08:46:43Z</time>
      </trkpt>
      <trkpt lat="42.82839" lon="-0.28911">
        <ele>2763.9851074219</ele>
        <time>2014-03-11T08:59:20Z</time>
      </trkpt>
      <trkpt lat="42.82843" lon="-0.28922">
        <ele>2766.4479980469</ele>
        <time>2014-03-11T08:59:38Z</time>
      </trkpt>
      <trkpt lat="42.82848" lon="-0.28929">
        <ele>2768.9169921875</ele>
        <time>2014-03-11T08:59:59Z</time>
      </trkpt>
      <trkpt lat="42.82853" lon="-0.28929">
        <ele>2770.5339355469</ele>
        <time>2014-03-11T09:00:13Z</time>
      </trkpt>
      <trkpt lat="42.82863" lon="-0.28932">
        <ele>2771.708984375</ele>
        <time>2014-03-11T09:00:31Z</time>
      </trkpt>
      <trkpt lat="42.82867" lon="-0.28945">
        <ele>2774.7329101562</ele>
        <time>2014-03-11T09:00:54Z</time>
      </trkpt>
      <trkpt lat="42.82875" lon="-0.28947">
        <ele>2775.8459472656</ele>
        <time>2014-03-11T09:01:14Z</time>
      </trkpt>
      <trkpt lat="42.82885" lon="-0.28948">
        <ele>2778.1350097656</ele>
        <time>2014-03-11T09:01:34Z</time>
      </trkpt>
      <trkpt lat="42.82895" lon="-0.28945">
        <ele>2781.2629394531</ele>
        <time>2014-03-11T09:01:57Z</time>
      </trkpt>
      <trkpt lat="42.82905" lon="-0.28939">
        <ele>2784.4860839844</ele>
        <time>2014-03-11T09:02:23Z</time>
      </trkpt>
      <trkpt lat="42.82913" lon="-0.2893">
        <ele>2787.5129394531</ele>
        <time>2014-03-11T09:02:45Z</time>
      </trkpt>
      <trkpt lat="42.82923" lon="-0.28916">
        <ele>2790.41796875</ele>
        <time>2014-03-11T09:03:16Z</time>
      </trkpt>
      <trkpt lat="42.82925" lon="-0.28932">
        <ele>2793.5380859375</ele>
        <time>2014-03-11T09:03:36Z</time>
      </trkpt>
      <trkpt lat="42.82929" lon="-0.28952">
        <ele>2796.5639648438</ele>
        <time>2014-03-11T09:04:06Z</time>
      </trkpt>
      <trkpt lat="42.82932" lon="-0.28946">
        <ele>2798.9851074219</ele>
        <time>2014-03-11T09:04:22Z</time>
      </trkpt>
      <trkpt lat="42.82939" lon="-0.2894">
        <ele>2800.6850585938</ele>
        <time>2014-03-11T09:04:39Z</time>
      </trkpt>
      <trkpt lat="42.82949" lon="-0.28932">
        <ele>2803.9641113281</ele>
        <time>2014-03-11T09:05:04Z</time>
      </trkpt>
      <trkpt lat="42.82952" lon="-0.28933">
        <ele>2806.041015625</ele>
        <time>2014-03-11T09:05:24Z</time>
      </trkpt>
      <trkpt lat="42.8295" lon="-0.28945">
        <ele>2808.5319824219</ele>
        <time>2014-03-11T09:05:41Z</time>
      </trkpt>
      <trkpt lat="42.82951" lon="-0.28966">
        <ele>2811.8520507812</ele>
        <time>2014-03-11T09:06:14Z</time>
      </trkpt>
      <trkpt lat="42.82959" lon="-0.28961">
        <ele>2814.2561035156</ele>
        <time>2014-03-11T09:06:41Z</time>
      </trkpt>
      <trkpt lat="42.82968" lon="-0.28954">
        <ele>2817.2770996094</ele>
        <time>2014-03-11T09:07:00Z</time>
      </trkpt>
      <trkpt lat="42.82973" lon="-0.28952">
        <ele>2819.2670898438</ele>
        <time>2014-03-11T09:07:11Z</time>
      </trkpt>
      <trkpt lat="42.82978" lon="-0.28948">
        <ele>2820.6599121094</ele>
        <time>2014-03-11T09:07:29Z</time>
      </trkpt>
      <trkpt lat="42.82982" lon="-0.28949">
        <ele>2819.5810546875</ele>
        <time>2014-03-11T09:08:18Z</time>
      </trkpt>
      <trkpt lat="42.82981" lon="-0.28954">
        <ele>2820.7749023438</ele>
        <time>2014-03-11T09:08:25Z</time>
      </trkpt>
      <trkpt lat="42.82979" lon="-0.28968">
        <ele>2823.9851074219</ele>
        <time>2014-03-11T09:08:44Z</time>
      </trkpt>
      <trkpt lat="42.82977" lon="-0.28981">
        <ele>2827.2709960938</ele>
        <time>2014-03-11T09:09:03Z</time>
      </trkpt>
      <trkpt lat="42.82977" lon="-0.28999">
        <ele>2830.2919921875</ele>
        <time>2014-03-11T09:09:24Z</time>
      </trkpt>
      <trkpt lat="42.82983" lon="-0.28999">
        <ele>2833.2819824219</ele>
        <time>2014-03-11T09:09:42Z</time>
      </trkpt>
      <trkpt lat="42.82994" lon="-0.28988">
        <ele>2836.1779785156</ele>
        <time>2014-03-11T09:10:09Z</time>
      </trkpt>
      <trkpt lat="42.83" lon="-0.2898">
        <ele>2836.3200683594</ele>
        <time>2014-03-11T09:10:27Z</time>
      </trkpt>
      <trkpt lat="42.82999" lon="-0.28989">
        <ele>2835.6389160156</ele>
        <time>2014-03-11T09:11:06Z</time>
      </trkpt>
      <trkpt lat="42.83008" lon="-0.28982">
        <ele>2837.9909667969</ele>
        <time>2014-03-11T09:11:23Z</time>
      </trkpt>
      <trkpt lat="42.83007" lon="-0.28983">
        <ele>2840.4379882812</ele>
        <time>2014-03-11T09:11:40Z</time>
      </trkpt>
      <trkpt lat="42.83005" lon="-0.28997">
        <ele>2843.3000488281</ele>
        <time>2014-03-11T09:11:55Z</time>
      </trkpt>
      <trkpt lat="42.83004" lon="-0.29013">
        <ele>2845.4880371094</ele>
        <time>2014-03-11T09:12:15Z</time>
      </trkpt>
      <trkpt lat="42.83003" lon="-0.29016">
        <ele>2848.5070800781</ele>
        <time>2014-03-11T09:12:25Z</time>
      </trkpt>
      <trkpt lat="42.83002" lon="-0.29019">
        <ele>2851.5720214844</ele>
        <time>2014-03-11T09:12:32Z</time>
      </trkpt>
      <trkpt lat="42.83002" lon="-0.29021">
        <ele>2851.5659179688</ele>
        <time>2014-03-11T09:12:33Z</time>
      </trkpt>
      <trkpt lat="42.83001" lon="-0.29026">
        <ele>2853.0810546875</ele>
        <time>2014-03-11T09:12:40Z</time>
      </trkpt>
      <trkpt lat="42.83001" lon="-0.29025">
        <ele>2850.1149902344</ele>
        <time>2014-03-11T09:12:46Z</time>
      </trkpt>
      <trkpt lat="42.83003" lon="-0.29024">
        <ele>2848.8049316406</ele>
        <time>2014-03-11T09:12:49Z</time>
      </trkpt>
      <trkpt lat="42.83013" lon="-0.2902">
        <ele>2852.037109375</ele>
        <time>2014-03-11T09:13:01Z</time>
      </trkpt>
      <trkpt lat="42.83025" lon="-0.29013">
        <ele>2853.7250976562</ele>
        <time>2014-03-11T09:13:21Z</time>
      </trkpt>
      <trkpt lat="42.83026" lon="-0.29012">
        <ele>2854.7680664062</ele>
        <time>2014-03-11T09:13:28Z</time>
      </trkpt>
      <trkpt lat="42.83029" lon="-0.29007">
        <ele>2856.4580078125</ele>
        <time>2014-03-11T09:13:48Z</time>
      </trkpt>
      <trkpt lat="42.83028" lon="-0.29018">
        <ele>2859.0791015625</ele>
        <time>2014-03-11T09:14:05Z</time>
      </trkpt>
      <trkpt lat="42.83026" lon="-0.29031">
        <ele>2860.4838867188</ele>
        <time>2014-03-11T09:14:22Z</time>
      </trkpt>
      <trkpt lat="42.83022" lon="-0.29042">
        <ele>2862.544921875</ele>
        <time>2014-03-11T09:14:40Z</time>
      </trkpt>
      <trkpt lat="42.83015" lon="-0.29051">
        <ele>2863.5520019531</ele>
        <time>2014-03-11T09:14:57Z</time>
      </trkpt>
      <trkpt lat="42.83009" lon="-0.29062">
        <ele>2865.3459472656</ele>
        <time>2014-03-11T09:15:13Z</time>
      </trkpt>
      <trkpt lat="42.83003" lon="-0.29067">
        <ele>2867.0759277344</ele>
        <time>2014-03-11T09:15:34Z</time>
      </trkpt>
      <trkpt lat="42.83009" lon="-0.29066">
        <ele>2869.24609375</ele>
        <time>2014-03-11T09:15:50Z</time>
      </trkpt>
      <trkpt lat="42.8302" lon="-0.29064">
        <ele>2872.3630371094</ele>
        <time>2014-03-11T09:16:07Z</time>
      </trkpt>
      <trkpt lat="42.83028" lon="-0.29061">
        <ele>2874.8081054688</ele>
        <time>2014-03-11T09:16:20Z</time>
      </trkpt>
      <trkpt lat="42.83028" lon="-0.2906">
        <ele>2876.1550292969</ele>
        <time>2014-03-11T09:16:22Z</time>
      </trkpt>
      <trkpt lat="42.83031" lon="-0.29059">
        <ele>2874.4670410156</ele>
        <time>2014-03-11T09:16:26Z</time>
      </trkpt>
      <trkpt lat="42.83041" lon="-0.29053">
        <ele>2877.3110351562</ele>
        <time>2014-03-11T09:16:49Z</time>
      </trkpt>
      <trkpt lat="42.83043" lon="-0.29051">
        <ele>2878.7690429688</ele>
        <time>2014-03-11T09:16:56Z</time>
      </trkpt>
      <trkpt lat="42.8305" lon="-0.29045">
        <ele>2880.375</ele>
        <time>2014-03-11T09:17:16Z</time>
      </trkpt>
      <trkpt lat="42.83055" lon="-0.29041">
        <ele>2882.9460449219</ele>
        <time>2014-03-11T09:17:37Z</time>
      </trkpt>
      <trkpt lat="42.83067" lon="-0.29031">
        <ele>2885.0258789062</ele>
        <time>2014-03-11T09:17:59Z</time>
      </trkpt>
      <trkpt lat="42.8307" lon="-0.2903">
        <ele>2885.6469726562</ele>
        <time>2014-03-11T09:18:07Z</time>
      </trkpt>
      <trkpt lat="42.83072" lon="-0.29041">
        <ele>2888.0290527344</ele>
        <time>2014-03-11T09:18:24Z</time>
      </trkpt>
      <trkpt lat="42.83069" lon="-0.29051">
        <ele>2889.5791015625</ele>
        <time>2014-03-11T09:18:41Z</time>
      </trkpt>
      <trkpt lat="42.83068" lon="-0.29052">
        <ele>2888.4528808594</ele>
        <time>2014-03-11T09:18:50Z</time>
      </trkpt>
      <trkpt lat="42.83068" lon="-0.29052">
        <ele>2888.794921875</ele>
        <time>2014-03-11T09:18:51Z</time>
      </trkpt>
      <trkpt lat="42.83067" lon="-0.29063">
        <ele>2890.8679199219</ele>
        <time>2014-03-11T09:19:02Z</time>
      </trkpt>
      <trkpt lat="42.83067" lon="-0.29072">
        <ele>2893.9108886719</ele>
        <time>2014-03-11T09:19:15Z</time>
      </trkpt>
      <trkpt lat="42.83071" lon="-0.29072">
        <ele>2897.6760253906</ele>
        <time>2014-03-11T09:19:30Z</time>
      </trkpt>
      <trkpt lat="42.83084" lon="-0.29065">
        <ele>2900.2319335938</ele>
        <time>2014-03-11T09:19:53Z</time>
      </trkpt>
      <trkpt lat="42.83092" lon="-0.29065">
        <ele>2900.0749511719</ele>
        <time>2014-03-11T09:20:14Z</time>
      </trkpt>
      <trkpt lat="42.83092" lon="-0.29071">
        <ele>2900.0549316406</ele>
        <time>2014-03-11T09:20:35Z</time>
      </trkpt>
      <trkpt lat="42.83091" lon="-0.29074">
        <ele>2902.9838867188</ele>
        <time>2014-03-11T09:20:39Z</time>
      </trkpt>
      <trkpt lat="42.83088" lon="-0.29081">
        <ele>2902.8898925781</ele>
        <time>2014-03-11T09:20:48Z</time>
      </trkpt>
      <trkpt lat="42.83083" lon="-0.29093">
        <ele>2904.3181152344</ele>
        <time>2014-03-11T09:21:11Z</time>
      </trkpt>
      <trkpt lat="42.8308" lon="-0.29103">
        <ele>2907.3759765625</ele>
        <time>2014-03-11T09:21:31Z</time>
      </trkpt>
      <trkpt lat="42.83078" lon="-0.29108">
        <ele>2908.751953125</ele>
        <time>2014-03-11T09:21:49Z</time>
      </trkpt>
      <trkpt lat="42.83078" lon="-0.29108">
        <ele>2907.1359863281</ele>
        <time>2014-03-11T09:21:51Z</time>
      </trkpt>
      <trkpt lat="42.83079" lon="-0.29107">
        <ele>2910.0439453125</ele>
        <time>2014-03-11T09:21:53Z</time>
      </trkpt>
      <trkpt lat="42.83085" lon="-0.29104">
        <ele>2910.2600097656</ele>
        <time>2014-03-11T09:22:02Z</time>
      </trkpt>
      <trkpt lat="42.83095" lon="-0.291">
        <ele>2912.3740234375</ele>
        <time>2014-03-11T09:22:21Z</time>
      </trkpt>
      <trkpt lat="42.83101" lon="-0.29099">
        <ele>2914.3439941406</ele>
        <time>2014-03-11T09:22:39Z</time>
      </trkpt>
      <trkpt lat="42.83109" lon="-0.29098">
        <ele>2916.4809570312</ele>
        <time>2014-03-11T09:22:56Z</time>
      </trkpt>
      <trkpt lat="42.83112" lon="-0.29103">
        <ele>2918.1330566406</ele>
        <time>2014-03-11T09:23:20Z</time>
      </trkpt>
      <trkpt lat="42.83104" lon="-0.29111">
        <ele>2920.9851074219</ele>
        <time>2014-03-11T09:23:42Z</time>
      </trkpt>
      <trkpt lat="42.83113" lon="-0.29111">
        <ele>2924.373046875</ele>
        <time>2014-03-11T09:24:04Z</time>
      </trkpt>
      <trkpt lat="42.83114" lon="-0.29111">
        <ele>2921.0070800781</ele>
        <time>2014-03-11T09:25:30Z</time>
      </trkpt>
      <trkpt lat="42.83114" lon="-0.29111">
        <ele>2921.0070800781</ele>
        <time>2014-03-11T09:25:31Z</time>
      </trkpt>
      <trkpt lat="42.83114" lon="-0.2911">
        <ele>2922.4829101562</ele>
        <time>2014-03-11T09:25:42Z</time>
      </trkpt>
      <trkpt lat="42.83117" lon="-0.29109">
        <ele>2923.4230957031</ele>
        <time>2014-03-11T09:26:05Z</time>
      </trkpt>
      <trkpt lat="42.83117" lon="-0.29108">
        <ele>2921.3610839844</ele>
        <time>2014-03-11T09:26:08Z</time>
      </trkpt>
      <trkpt lat="42.83117" lon="-0.29108">
        <ele>2922.4560546875</ele>
        <time>2014-03-11T09:26:49Z</time>
      </trkpt>
      <trkpt lat="42.83117" lon="-0.29108">
        <ele>2921.9760742188</ele>
        <time>2014-03-11T09:27:19Z</time>
      </trkpt>
      <trkpt lat="42.83122" lon="-0.29108">
        <ele>2925.4008789062</ele>
        <time>2014-03-11T09:28:55Z</time>
      </trkpt>
      <trkpt lat="42.83117" lon="-0.29118">
        <ele>2926.6140136719</ele>
        <time>2014-03-11T09:29:22Z</time>
      </trkpt>
      <trkpt lat="42.83107" lon="-0.29131">
        <ele>2928.3479003906</ele>
        <time>2014-03-11T09:29:44Z</time>
      </trkpt>
      <trkpt lat="42.83102" lon="-0.29138">
        <ele>2929.4760742188</ele>
        <time>2014-03-11T09:29:59Z</time>
      </trkpt>
      <trkpt lat="42.83101" lon="-0.29138">
        <ele>2930.6608886719</ele>
        <time>2014-03-11T09:30:21Z</time>
      </trkpt>
      <trkpt lat="42.83101" lon="-0.29139">
        <ele>2930.2900390625</ele>
        <time>2014-03-11T09:30:40Z</time>
      </trkpt>
      <trkpt lat="42.83105" lon="-0.29139">
        <ele>2932.6069335938</ele>
        <time>2014-03-11T09:30:48Z</time>
      </trkpt>
      <trkpt lat="42.83115" lon="-0.29139">
        <ele>2935.6760253906</ele>
        <time>2014-03-11T09:31:07Z</time>
      </trkpt>
      <trkpt lat="42.83125" lon="-0.2915">
        <ele>2938.6950683594</ele>
        <time>2014-03-11T09:31:31Z</time>
      </trkpt>
      <trkpt lat="42.83123" lon="-0.29149">
        <ele>2937.3779296875</ele>
        <time>2014-03-11T09:31:36Z</time>
      </trkpt>
      <trkpt lat="42.83132" lon="-0.29142">
        <ele>2937.8459472656</ele>
        <time>2014-03-11T09:32:14Z</time>
      </trkpt>
      <trkpt lat="42.8314" lon="-0.2914">
        <ele>2940.6240234375</ele>
        <time>2014-03-11T09:32:34Z</time>
      </trkpt>
      <trkpt lat="42.8313" lon="-0.29148">
        <ele>2943.248046875</ele>
        <time>2014-03-11T09:32:57Z</time>
      </trkpt>
      <trkpt lat="42.83117" lon="-0.29154">
        <ele>2946.3840332031</ele>
        <time>2014-03-11T09:33:20Z</time>
      </trkpt>
      <trkpt lat="42.83109" lon="-0.29166">
        <ele>2947.9370117188</ele>
        <time>2014-03-11T09:33:43Z</time>
      </trkpt>
      <trkpt lat="42.83105" lon="-0.29173">
        <ele>2951.4719238281</ele>
        <time>2014-03-11T09:33:56Z</time>
      </trkpt>
      <trkpt lat="42.831" lon="-0.29183">
        <ele>2951.9580078125</ele>
        <time>2014-03-11T09:34:15Z</time>
      </trkpt>
      <trkpt lat="42.83095" lon="-0.29188">
        <ele>2950.4150390625</ele>
        <time>2014-03-11T09:34:31Z</time>
      </trkpt>
      <trkpt lat="42.83094" lon="-0.29195">
        <ele>2952.2509765625</ele>
        <time>2014-03-11T09:34:53Z</time>
      </trkpt>
      <trkpt lat="42.83102" lon="-0.2919">
        <ele>2954.4829101562</ele>
        <time>2014-03-11T09:35:12Z</time>
      </trkpt>
      <trkpt lat="42.83107" lon="-0.2919">
        <ele>2955.9760742188</ele>
        <time>2014-03-11T09:35:19Z</time>
      </trkpt>
      <trkpt lat="42.83114" lon="-0.2919">
        <ele>2957.6779785156</ele>
        <time>2014-03-11T09:35:33Z</time>
      </trkpt>
      <trkpt lat="42.83115" lon="-0.2919">
        <ele>2956.0891113281</ele>
        <time>2014-03-11T09:35:35Z</time>
      </trkpt>
      <trkpt lat="42.83115" lon="-0.29183">
        <ele>2962.2270507812</ele>
        <time>2014-03-11T09:35:45Z</time>
      </trkpt>
      <trkpt lat="42.83116" lon="-0.29183">
        <ele>2960.4089355469</ele>
        <time>2014-03-11T09:35:46Z</time>
      </trkpt>
      <trkpt lat="42.83119" lon="-0.29179">
        <ele>2961.4089355469</ele>
        <time>2014-03-11T09:36:02Z</time>
      </trkpt>
      <trkpt lat="42.83123" lon="-0.29178">
        <ele>2964.0749511719</ele>
        <time>2014-03-11T09:36:24Z</time>
      </trkpt>
      <trkpt lat="42.83131" lon="-0.29177">
        <ele>2963.9619140625</ele>
        <time>2014-03-11T09:36:39Z</time>
      </trkpt>
      <trkpt lat="42.83132" lon="-0.29177">
        <ele>2966.5659179688</ele>
        <time>2014-03-11T09:37:38Z</time>
      </trkpt>
      <trkpt lat="42.83131" lon="-0.29182">
        <ele>2969.7561035156</ele>
        <time>2014-03-11T09:39:44Z</time>
      </trkpt>
      <trkpt lat="42.83121" lon="-0.29194">
        <ele>2971.0161132812</ele>
        <time>2014-03-11T09:40:05Z</time>
      </trkpt>
      <trkpt lat="42.83115" lon="-0.292">
        <ele>2974.5249023438</ele>
        <time>2014-03-11T09:40:28Z</time>
      </trkpt>
      <trkpt lat="42.83127" lon="-0.29197">
        <ele>2976.0148925781</ele>
        <time>2014-03-11T09:41:19Z</time>
      </trkpt>
      <trkpt lat="42.8312" lon="-0.29207">
        <ele>2977.9389648438</ele>
        <time>2014-03-11T09:42:00Z</time>
      </trkpt>
      <trkpt lat="42.83128" lon="-0.29205">
        <ele>2980.6389160156</ele>
        <time>2014-03-11T09:42:33Z</time>
      </trkpt>
      <trkpt lat="42.83129" lon="-0.29204">
        <ele>2981.1179199219</ele>
        <time>2014-03-11T09:43:20Z</time>
      </trkpt>
      <trkpt lat="42.83132" lon="-0.29206">
        <ele>2982.3410644531</ele>
        <time>2014-03-11T09:44:23Z</time>
      </trkpt>
      <trkpt lat="42.83132" lon="-0.29203">
        <ele>2982.8579101562</ele>
        <time>2014-03-11T09:44:46Z</time>
      </trkpt>
      <trkpt lat="42.83132" lon="-0.29203">
        <ele>2983.748046875</ele>
        <time>2014-03-11T09:45:32Z</time>
      </trkpt>
      <trkpt lat="42.83132" lon="-0.29206">
        <ele>2987.5109863281</ele>
        <time>2014-03-11T09:46:17Z</time>
      </trkpt>
      <trkpt lat="42.83133" lon="-0.29206">
        <ele>2987.4599609375</ele>
        <time>2014-03-11T09:46:18Z</time>
      </trkpt>
      <trkpt lat="42.83137" lon="-0.29208">
        <ele>2988.7338867188</ele>
        <time>2014-03-11T09:46:42Z</time>
      </trkpt>
      <trkpt lat="42.8314" lon="-0.2921">
        <ele>2989.4851074219</ele>
        <time>2014-03-11T09:47:14Z</time>
      </trkpt>
      <trkpt lat="42.83141" lon="-0.29211">
        <ele>2993.6059570312</ele>
        <time>2014-03-11T09:48:29Z</time>
      </trkpt>
      <trkpt lat="42.83142" lon="-0.29211">
        <ele>2993.3989257812</ele>
        <time>2014-03-11T09:48:30Z</time>
      </trkpt>
      <trkpt lat="42.83146" lon="-0.29212">
        <ele>2992.8459472656</ele>
        <time>2014-03-11T09:48:48Z</time>
      </trkpt>
      <trkpt lat="42.8315" lon="-0.29213">
        <ele>2995.5458984375</ele>
        <time>2014-03-11T09:49:18Z</time>
      </trkpt>
      <trkpt lat="42.83158" lon="-0.29212">
        <ele>2998.876953125</ele>
        <time>2014-03-11T09:49:53Z</time>
      </trkpt>
      <trkpt lat="42.83159" lon="-0.29212">
        <ele>2999.8449707031</ele>
        <time>2014-03-11T09:50:12Z</time>
      </trkpt>
      <trkpt lat="42.83159" lon="-0.29216">
        <ele>3003.5949707031</ele>
        <time>2014-03-11T09:50:37Z</time>
      </trkpt>
      <trkpt lat="42.83161" lon="-0.29218">
        <ele>3006.7570800781</ele>
        <time>2014-03-11T09:51:30Z</time>
      </trkpt>
      <trkpt lat="42.83161" lon="-0.29218">
        <ele>3006.751953125</ele>
        <time>2014-03-11T09:51:31Z</time>
      </trkpt>
      <trkpt lat="42.83164" lon="-0.29219">
        <ele>3009.7958984375</ele>
        <time>2014-03-11T09:52:09Z</time>
      </trkpt>
      <trkpt lat="42.83164" lon="-0.29219">
        <ele>3010.8979492188</ele>
        <time>2014-03-11T09:52:11Z</time>
      </trkpt>
      <trkpt lat="42.83171" lon="-0.29216">
        <ele>3014.1550292969</ele>
        <time>2014-03-11T09:53:08Z</time>
      </trkpt>
      <trkpt lat="42.83173" lon="-0.29219">
        <ele>3017.1989746094</ele>
        <time>2014-03-11T09:53:44Z</time>
      </trkpt>
      <trkpt lat="42.83176" lon="-0.2922">
        <ele>3019.7739257812</ele>
        <time>2014-03-11T09:54:13Z</time>
      </trkpt>
      <trkpt lat="42.83178" lon="-0.2922">
        <ele>3020.0510253906</ele>
        <time>2014-03-11T09:54:41Z</time>
      </trkpt>
      <trkpt lat="42.83179" lon="-0.2922">
        <ele>3024.0190429688</ele>
        <time>2014-03-11T09:54:45Z</time>
      </trkpt>
      <trkpt lat="42.8318" lon="-0.2922">
        <ele>3022.6520996094</ele>
        <time>2014-03-11T09:54:55Z</time>
      </trkpt>
      <trkpt lat="42.83184" lon="-0.29223">
        <ele>3025.7690429688</ele>
        <time>2014-03-11T09:55:36Z</time>
      </trkpt>
      <trkpt lat="42.83186" lon="-0.2923">
        <ele>3028.1079101562</ele>
        <time>2014-03-11T09:55:54Z</time>
      </trkpt>
      <trkpt lat="42.83186" lon="-0.29234">
        <ele>3027.705078125</ele>
        <time>2014-03-11T09:56:10Z</time>
      </trkpt>
      <trkpt lat="42.83184" lon="-0.29237">
        <ele>3029.3269042969</ele>
        <time>2014-03-11T09:56:29Z</time>
      </trkpt>
      <trkpt lat="42.83184" lon="-0.29243">
        <ele>3030.1398925781</ele>
        <time>2014-03-11T09:56:46Z</time>
      </trkpt>
      <trkpt lat="42.83184" lon="-0.29248">
        <ele>3033.1411132812</ele>
        <time>2014-03-11T09:57:04Z</time>
      </trkpt>
      <trkpt lat="42.83183" lon="-0.29248">
        <ele>3033.1369628906</ele>
        <time>2014-03-11T09:57:05Z</time>
      </trkpt>
      <trkpt lat="42.83184" lon="-0.29247">
        <ele>3032.7958984375</ele>
        <time>2014-03-11T09:57:14Z</time>
      </trkpt>
      <trkpt lat="42.83189" lon="-0.29244">
        <ele>3033.1179199219</ele>
        <time>2014-03-11T09:57:26Z</time>
      </trkpt>
      <trkpt lat="42.83195" lon="-0.29238">
        <ele>3035.0219726562</ele>
        <time>2014-03-11T09:57:46Z</time>
      </trkpt>
      <trkpt lat="42.83198" lon="-0.29236">
        <ele>3036.8779296875</ele>
        <time>2014-03-11T09:57:58Z</time>
      </trkpt>
      <trkpt lat="42.83201" lon="-0.29229">
        <ele>3038.0258789062</ele>
        <time>2014-03-11T09:58:16Z</time>
      </trkpt>
      <trkpt lat="42.83204" lon="-0.29224">
        <ele>3039.3999023438</ele>
        <time>2014-03-11T09:58:39Z</time>
      </trkpt>
      <trkpt lat="42.83204" lon="-0.29222">
        <ele>3041.5319824219</ele>
        <time>2014-03-11T09:59:04Z</time>
      </trkpt>
      <trkpt lat="42.83204" lon="-0.29222">
        <ele>3041.3669433594</ele>
        <time>2014-03-11T09:59:42Z</time>
      </trkpt>
      <trkpt lat="42.83205" lon="-0.29221">
        <ele>3040.9008789062</ele>
        <time>2014-03-11T10:00:00Z</time>
      </trkpt>
      <trkpt lat="42.83205" lon="-0.29221">
        <ele>3037.9499511719</ele>
        <time>2014-03-11T10:02:24Z</time>
      </trkpt>
      <trkpt lat="42.83205" lon="-0.29221">
        <ele>3039.8959960938</ele>
        <time>2014-03-11T10:02:27Z</time>
      </trkpt>
      <trkpt lat="42.83205" lon="-0.29221">
        <ele>3039.4580078125</ele>
        <time>2014-03-11T10:02:41Z</time>
      </trkpt>
      <trkpt lat="42.83205" lon="-0.29221">
        <ele>3041.9689941406</ele>
        <time>2014-03-11T10:04:09Z</time>
      </trkpt>
      <trkpt lat="42.83204" lon="-0.29221">
        <ele>3039.2829589844</ele>
        <time>2014-03-11T10:04:18Z</time>
      </trkpt>
      <trkpt lat="42.83205" lon="-0.29222">
        <ele>3041.7170410156</ele>
        <time>2014-03-11T10:04:48Z</time>
      </trkpt>
      <trkpt lat="42.83146" lon="-0.29429">
        <ele>3031.0339355469</ele>
        <time>2014-03-11T11:46:38Z</time>
      </trkpt>
      <trkpt lat="42.83146" lon="-0.29429">
        <ele>3017.455078125</ele>
        <time>2014-03-11T11:46:39Z</time>
      </trkpt>
      <trkpt lat="42.83121" lon="-0.29451">
        <ele>3017.455078125</ele>
        <time>2014-03-11T11:46:40Z</time>
      </trkpt>
      <trkpt lat="42.83105" lon="-0.29422">
        <ele>3018.0759277344</ele>
        <time>2014-03-11T11:46:57Z</time>
      </trkpt>
      <trkpt lat="42.83107" lon="-0.29426">
        <ele>3015.79296875</ele>
        <time>2014-03-11T11:47:09Z</time>
      </trkpt>
      <trkpt lat="42.83106" lon="-0.29428">
        <ele>3013.6730957031</ele>
        <time>2014-03-11T11:47:23Z</time>
      </trkpt>
      <trkpt lat="42.8311" lon="-0.29434">
        <ele>3010.4951171875</ele>
        <time>2014-03-11T11:47:30Z</time>
      </trkpt>
      <trkpt lat="42.8311" lon="-0.29434">
        <ele>3010.4951171875</ele>
        <time>2014-03-11T11:47:31Z</time>
      </trkpt>
      <trkpt lat="42.83113" lon="-0.2944">
        <ele>3007.212890625</ele>
        <time>2014-03-11T11:47:39Z</time>
      </trkpt>
      <trkpt lat="42.83113" lon="-0.29441">
        <ele>3005.1931152344</ele>
        <time>2014-03-11T11:47:43Z</time>
      </trkpt>
      <trkpt lat="42.83111" lon="-0.29443">
        <ele>3005.2729492188</ele>
        <time>2014-03-11T11:47:50Z</time>
      </trkpt>
      <trkpt lat="42.83106" lon="-0.29452">
        <ele>3003.1350097656</ele>
        <time>2014-03-11T11:47:54Z</time>
      </trkpt>
      <trkpt lat="42.83105" lon="-0.29453">
        <ele>3001.3449707031</ele>
        <time>2014-03-11T11:47:55Z</time>
      </trkpt>
      <trkpt lat="42.83103" lon="-0.29455">
        <ele>3000.5639648438</ele>
        <time>2014-03-11T11:47:57Z</time>
      </trkpt>
      <trkpt lat="42.83099" lon="-0.29459">
        <ele>2999.1940917969</ele>
        <time>2014-03-11T11:47:59Z</time>
      </trkpt>
      <trkpt lat="42.83097" lon="-0.2946">
        <ele>2997.8999023438</ele>
        <time>2014-03-11T11:48:01Z</time>
      </trkpt>
      <trkpt lat="42.83097" lon="-0.29461">
        <ele>2997.4870605469</ele>
        <time>2014-03-11T11:48:03Z</time>
      </trkpt>
      <trkpt lat="42.831" lon="-0.29467">
        <ele>2995.0119628906</ele>
        <time>2014-03-11T11:48:06Z</time>
      </trkpt>
      <trkpt lat="42.83104" lon="-0.29469">
        <ele>2992.8469238281</ele>
        <time>2014-03-11T11:48:08Z</time>
      </trkpt>
      <trkpt lat="42.83104" lon="-0.29469">
        <ele>2993.1950683594</ele>
        <time>2014-03-11T11:48:09Z</time>
      </trkpt>
      <trkpt lat="42.831" lon="-0.29479">
        <ele>2990.9489746094</ele>
        <time>2014-03-11T11:48:13Z</time>
      </trkpt>
      <trkpt lat="42.831" lon="-0.2948">
        <ele>2990.4140625</ele>
        <time>2014-03-11T11:48:15Z</time>
      </trkpt>
      <trkpt lat="42.83102" lon="-0.29486">
        <ele>2987.0600585938</ele>
        <time>2014-03-11T11:48:18Z</time>
      </trkpt>
      <trkpt lat="42.83105" lon="-0.29485">
        <ele>2984.7241210938</ele>
        <time>2014-03-11T11:48:20Z</time>
      </trkpt>
      <trkpt lat="42.83107" lon="-0.29486">
        <ele>2983.8869628906</ele>
        <time>2014-03-11T11:48:24Z</time>
      </trkpt>
      <trkpt lat="42.83105" lon="-0.29491">
        <ele>2983.8020019531</ele>
        <time>2014-03-11T11:48:38Z</time>
      </trkpt>
      <trkpt lat="42.83109" lon="-0.29485">
        <ele>2982.3701171875</ele>
        <time>2014-03-11T11:53:14Z</time>
      </trkpt>
      <trkpt lat="42.83109" lon="-0.29485">
        <ele>2982.5991210938</ele>
        <time>2014-03-11T11:53:39Z</time>
      </trkpt>
      <trkpt lat="42.8311" lon="-0.29485">
        <ele>2979.5930175781</ele>
        <time>2014-03-11T11:55:29Z</time>
      </trkpt>
      <trkpt lat="42.8311" lon="-0.29486">
        <ele>2976.5061035156</ele>
        <time>2014-03-11T11:58:00Z</time>
      </trkpt>
      <trkpt lat="42.83113" lon="-0.29491">
        <ele>2977.416015625</ele>
        <time>2014-03-11T11:58:39Z</time>
      </trkpt>
      <trkpt lat="42.83113" lon="-0.29492">
        <ele>2975.3601074219</ele>
        <time>2014-03-11T11:59:10Z</time>
      </trkpt>
      <trkpt lat="42.83113" lon="-0.29492">
        <ele>2975.0358886719</ele>
        <time>2014-03-11T11:59:36Z</time>
      </trkpt>
      <trkpt lat="42.83114" lon="-0.29492">
        <ele>2971.4221191406</ele>
        <time>2014-03-11T12:00:40Z</time>
      </trkpt>
      <trkpt lat="42.83115" lon="-0.29494">
        <ele>2969.1389160156</ele>
        <time>2014-03-11T12:01:02Z</time>
      </trkpt>
      <trkpt lat="42.83117" lon="-0.29498">
        <ele>2969.3669433594</ele>
        <time>2014-03-11T12:01:22Z</time>
      </trkpt>
      <trkpt lat="42.83121" lon="-0.29503">
        <ele>2967.7590332031</ele>
        <time>2014-03-11T12:01:44Z</time>
      </trkpt>
      <trkpt lat="42.83123" lon="-0.29507">
        <ele>2967.7299804688</ele>
        <time>2014-03-11T12:02:08Z</time>
      </trkpt>
      <trkpt lat="42.83125" lon="-0.29508">
        <ele>2967.2849121094</ele>
        <time>2014-03-11T12:02:33Z</time>
      </trkpt>
      <trkpt lat="42.83125" lon="-0.29508">
        <ele>2965.7639160156</ele>
        <time>2014-03-11T12:04:42Z</time>
      </trkpt>
      <trkpt lat="42.83125" lon="-0.29508">
        <ele>2968.3530273438</ele>
        <time>2014-03-11T12:05:14Z</time>
      </trkpt>
      <trkpt lat="42.83125" lon="-0.29508">
        <ele>2966.3898925781</ele>
        <time>2014-03-11T12:05:26Z</time>
      </trkpt>
      <trkpt lat="42.83129" lon="-0.29511">
        <ele>2966.4880371094</ele>
        <time>2014-03-11T12:06:33Z</time>
      </trkpt>
      <trkpt lat="42.83128" lon="-0.29516">
        <ele>2967.5290527344</ele>
        <time>2014-03-11T12:07:22Z</time>
      </trkpt>
      <trkpt lat="42.83128" lon="-0.29516">
        <ele>2968.0300292969</ele>
        <time>2014-03-11T12:08:01Z</time>
      </trkpt>
      <trkpt lat="42.83128" lon="-0.29516">
        <ele>2966.955078125</ele>
        <time>2014-03-11T12:08:10Z</time>
      </trkpt>
      <trkpt lat="42.8313" lon="-0.2952">
        <ele>2965.3701171875</ele>
        <time>2014-03-11T12:09:55Z</time>
      </trkpt>
      <trkpt lat="42.83129" lon="-0.29522">
        <ele>2962.2329101562</ele>
        <time>2014-03-11T12:10:42Z</time>
      </trkpt>
      <trkpt lat="42.83129" lon="-0.29523">
        <ele>2959.1398925781</ele>
        <time>2014-03-11T12:11:49Z</time>
      </trkpt>
      <trkpt lat="42.83129" lon="-0.29524">
        <ele>2955.8940429688</ele>
        <time>2014-03-11T12:13:15Z</time>
      </trkpt>
      <trkpt lat="42.83129" lon="-0.29524">
        <ele>2955.8999023438</ele>
        <time>2014-03-11T12:13:16Z</time>
      </trkpt>
      <trkpt lat="42.83128" lon="-0.29527">
        <ele>2953.2009277344</ele>
        <time>2014-03-11T12:14:38Z</time>
      </trkpt>
      <trkpt lat="42.83131" lon="-0.29532">
        <ele>2953.1818847656</ele>
        <time>2014-03-11T12:16:29Z</time>
      </trkpt>
      <trkpt lat="42.83124" lon="-0.29533">
        <ele>2954.4560546875</ele>
        <time>2014-03-11T12:17:00Z</time>
      </trkpt>
      <trkpt lat="42.83122" lon="-0.29536">
        <ele>2954.6899414062</ele>
        <time>2014-03-11T12:17:55Z</time>
      </trkpt>
      <trkpt lat="42.83119" lon="-0.2954">
        <ele>2954.3120117188</ele>
        <time>2014-03-11T12:18:21Z</time>
      </trkpt>
      <trkpt lat="42.83119" lon="-0.2954">
        <ele>2952.3410644531</ele>
        <time>2014-03-11T12:19:26Z</time>
      </trkpt>
      <trkpt lat="42.83115" lon="-0.29547">
        <ele>2949.8439941406</ele>
        <time>2014-03-11T12:19:28Z</time>
      </trkpt>
      <trkpt lat="42.83107" lon="-0.29554">
        <ele>2945.9680175781</ele>
        <time>2014-03-11T12:19:30Z</time>
      </trkpt>
      <trkpt lat="42.83089" lon="-0.29561">
        <ele>2942.5949707031</ele>
        <time>2014-03-11T12:19:32Z</time>
      </trkpt>
      <trkpt lat="42.8308" lon="-0.29564">
        <ele>2942.6049804688</ele>
        <time>2014-03-11T12:19:33Z</time>
      </trkpt>
      <trkpt lat="42.83062" lon="-0.29573">
        <ele>2941.6799316406</ele>
        <time>2014-03-11T12:19:36Z</time>
      </trkpt>
      <trkpt lat="42.83061" lon="-0.2958">
        <ele>2937.6540527344</ele>
        <time>2014-03-11T12:19:39Z</time>
      </trkpt>
      <trkpt lat="42.83061" lon="-0.2958">
        <ele>2937.6640625</ele>
        <time>2014-03-11T12:19:40Z</time>
      </trkpt>
      <trkpt lat="42.8306" lon="-0.29576">
        <ele>2938.0949707031</ele>
        <time>2014-03-11T12:20:06Z</time>
      </trkpt>
      <trkpt lat="42.83059" lon="-0.29575">
        <ele>2938.5129394531</ele>
        <time>2014-03-11T12:20:35Z</time>
      </trkpt>
      <trkpt lat="42.8306" lon="-0.29575">
        <ele>2937.4260253906</ele>
        <time>2014-03-11T12:21:26Z</time>
      </trkpt>
      <trkpt lat="42.8306" lon="-0.29575">
        <ele>2938.1889648438</ele>
        <time>2014-03-11T12:21:30Z</time>
      </trkpt>
      <trkpt lat="42.8306" lon="-0.29573">
        <ele>2941.2580566406</ele>
        <time>2014-03-11T12:26:58Z</time>
      </trkpt>
      <trkpt lat="42.83061" lon="-0.29573">
        <ele>2940.833984375</ele>
        <time>2014-03-11T12:28:07Z</time>
      </trkpt>
      <trkpt lat="42.83063" lon="-0.29577">
        <ele>2942.0729980469</ele>
        <time>2014-03-11T12:33:36Z</time>
      </trkpt>
      <trkpt lat="42.83057" lon="-0.29586">
        <ele>2939.9560546875</ele>
        <time>2014-03-11T12:33:38Z</time>
      </trkpt>
      <trkpt lat="42.83049" lon="-0.29594">
        <ele>2937.9350585938</ele>
        <time>2014-03-11T12:33:40Z</time>
      </trkpt>
      <trkpt lat="42.83043" lon="-0.29601">
        <ele>2936.3059082031</ele>
        <time>2014-03-11T12:33:42Z</time>
      </trkpt>
      <trkpt lat="42.83037" lon="-0.29609">
        <ele>2932.9208984375</ele>
        <time>2014-03-11T12:33:44Z</time>
      </trkpt>
      <trkpt lat="42.83038" lon="-0.29619">
        <ele>2929.6779785156</ele>
        <time>2014-03-11T12:33:46Z</time>
      </trkpt>
      <trkpt lat="42.83038" lon="-0.29623">
        <ele>2929.6799316406</ele>
        <time>2014-03-11T12:33:47Z</time>
      </trkpt>
      <trkpt lat="42.83041" lon="-0.29632">
        <ele>2925.6779785156</ele>
        <time>2014-03-11T12:33:49Z</time>
      </trkpt>
      <trkpt lat="42.83042" lon="-0.29636">
        <ele>2921.873046875</ele>
        <time>2014-03-11T12:33:50Z</time>
      </trkpt>
      <trkpt lat="42.83044" lon="-0.2964">
        <ele>2918.2080078125</ele>
        <time>2014-03-11T12:33:51Z</time>
      </trkpt>
      <trkpt lat="42.83045" lon="-0.29645">
        <ele>2918.212890625</ele>
        <time>2014-03-11T12:33:52Z</time>
      </trkpt>
      <trkpt lat="42.83048" lon="-0.29649">
        <ele>2914.1630859375</ele>
        <time>2014-03-11T12:33:53Z</time>
      </trkpt>
      <trkpt lat="42.83051" lon="-0.29651">
        <ele>2914.16796875</ele>
        <time>2014-03-11T12:33:54Z</time>
      </trkpt>
      <trkpt lat="42.83052" lon="-0.29655">
        <ele>2910.0349121094</ele>
        <time>2014-03-11T12:33:55Z</time>
      </trkpt>
      <trkpt lat="42.8305" lon="-0.29661">
        <ele>2910.041015625</ele>
        <time>2014-03-11T12:33:56Z</time>
      </trkpt>
      <trkpt lat="42.83053" lon="-0.2968">
        <ele>2902.2839355469</ele>
        <time>2014-03-11T12:33:59Z</time>
      </trkpt>
      <trkpt lat="42.83052" lon="-0.29687">
        <ele>2898.20703125</ele>
        <time>2014-03-11T12:34:00Z</time>
      </trkpt>
      <trkpt lat="42.83062" lon="-0.29697">
        <ele>2894.7351074219</ele>
        <time>2014-03-11T12:34:02Z</time>
      </trkpt>
      <trkpt lat="42.83067" lon="-0.29699">
        <ele>2894.7451171875</ele>
        <time>2014-03-11T12:34:03Z</time>
      </trkpt>
      <trkpt lat="42.83071" lon="-0.297">
        <ele>2891.4799804688</ele>
        <time>2014-03-11T12:34:04Z</time>
      </trkpt>
      <trkpt lat="42.83079" lon="-0.29699">
        <ele>2890.5529785156</ele>
        <time>2014-03-11T12:34:06Z</time>
      </trkpt>
      <trkpt lat="42.83085" lon="-0.29699">
        <ele>2889.1669921875</ele>
        <time>2014-03-11T12:34:08Z</time>
      </trkpt>
      <trkpt lat="42.83087" lon="-0.29705">
        <ele>2886.4499511719</ele>
        <time>2014-03-11T12:34:18Z</time>
      </trkpt>
      <trkpt lat="42.83087" lon="-0.29705">
        <ele>2886.3029785156</ele>
        <time>2014-03-11T12:34:26Z</time>
      </trkpt>
      <trkpt lat="42.83088" lon="-0.29713">
        <ele>2883.0109863281</ele>
        <time>2014-03-11T12:34:30Z</time>
      </trkpt>
      <trkpt lat="42.83092" lon="-0.29715">
        <ele>2883.0190429688</ele>
        <time>2014-03-11T12:34:31Z</time>
      </trkpt>
      <trkpt lat="42.83094" lon="-0.29717">
        <ele>2879.4838867188</ele>
        <time>2014-03-11T12:34:32Z</time>
      </trkpt>
      <trkpt lat="42.831" lon="-0.29727">
        <ele>2873.1608886719</ele>
        <time>2014-03-11T12:34:35Z</time>
      </trkpt>
      <trkpt lat="42.831" lon="-0.29731">
        <ele>2873.166015625</ele>
        <time>2014-03-11T12:34:36Z</time>
      </trkpt>
      <trkpt lat="42.83102" lon="-0.29734">
        <ele>2869.6879882812</ele>
        <time>2014-03-11T12:34:37Z</time>
      </trkpt>
      <trkpt lat="42.83109" lon="-0.29735">
        <ele>2869.6918945312</ele>
        <time>2014-03-11T12:34:38Z</time>
      </trkpt>
      <trkpt lat="42.83113" lon="-0.29742">
        <ele>2866.8269042969</ele>
        <time>2014-03-11T12:34:40Z</time>
      </trkpt>
      <trkpt lat="42.83119" lon="-0.2974">
        <ele>2862.4809570312</ele>
        <time>2014-03-11T12:34:41Z</time>
      </trkpt>
      <trkpt lat="42.83125" lon="-0.29737">
        <ele>2859.0520019531</ele>
        <time>2014-03-11T12:34:42Z</time>
      </trkpt>
      <trkpt lat="42.83131" lon="-0.29734">
        <ele>2859.0549316406</ele>
        <time>2014-03-11T12:34:43Z</time>
      </trkpt>
      <trkpt lat="42.83145" lon="-0.29728">
        <ele>2856.3759765625</ele>
        <time>2014-03-11T12:34:45Z</time>
      </trkpt>
      <trkpt lat="42.83173" lon="-0.29735">
        <ele>2852.541015625</ele>
        <time>2014-03-11T12:34:49Z</time>
      </trkpt>
      <trkpt lat="42.83178" lon="-0.29738">
        <ele>2852.541015625</ele>
        <time>2014-03-11T12:34:50Z</time>
      </trkpt>
      <trkpt lat="42.83183" lon="-0.2974">
        <ele>2852.6359863281</ele>
        <time>2014-03-11T12:34:51Z</time>
      </trkpt>
      <trkpt lat="42.83179" lon="-0.29759">
        <ele>2847.9460449219</ele>
        <time>2014-03-11T12:34:55Z</time>
      </trkpt>
      <trkpt lat="42.83173" lon="-0.29766">
        <ele>2844.3579101562</ele>
        <time>2014-03-11T12:34:56Z</time>
      </trkpt>
      <trkpt lat="42.83151" lon="-0.29788">
        <ele>2841.3759765625</ele>
        <time>2014-03-11T12:34:59Z</time>
      </trkpt>
      <trkpt lat="42.83139" lon="-0.29796">
        <ele>2839.2419433594</ele>
        <time>2014-03-11T12:35:01Z</time>
      </trkpt>
      <trkpt lat="42.83135" lon="-0.29797">
        <ele>2839.5090332031</ele>
        <time>2014-03-11T12:35:08Z</time>
      </trkpt>
      <trkpt lat="42.83135" lon="-0.29797">
        <ele>2839.4350585938</ele>
        <time>2014-03-11T12:35:19Z</time>
      </trkpt>
      <trkpt lat="42.83137" lon="-0.29807">
        <ele>2835.8439941406</ele>
        <time>2014-03-11T12:35:23Z</time>
      </trkpt>
      <trkpt lat="42.83141" lon="-0.2981">
        <ele>2835.8400878906</ele>
        <time>2014-03-11T12:35:24Z</time>
      </trkpt>
      <trkpt lat="42.83142" lon="-0.29814">
        <ele>2831.9519042969</ele>
        <time>2014-03-11T12:35:25Z</time>
      </trkpt>
      <trkpt lat="42.83145" lon="-0.29818">
        <ele>2828.6870117188</ele>
        <time>2014-03-11T12:35:26Z</time>
      </trkpt>
      <trkpt lat="42.83149" lon="-0.29822">
        <ele>2828.6831054688</ele>
        <time>2014-03-11T12:35:27Z</time>
      </trkpt>
      <trkpt lat="42.8315" lon="-0.29827">
        <ele>2824.7241210938</ele>
        <time>2014-03-11T12:35:28Z</time>
      </trkpt>
      <trkpt lat="42.83154" lon="-0.29837">
        <ele>2820.9340820312</ele>
        <time>2014-03-11T12:35:30Z</time>
      </trkpt>
      <trkpt lat="42.83153" lon="-0.29849">
        <ele>2817.1630859375</ele>
        <time>2014-03-11T12:35:32Z</time>
      </trkpt>
      <trkpt lat="42.83157" lon="-0.2986">
        <ele>2814.6040039062</ele>
        <time>2014-03-11T12:35:34Z</time>
      </trkpt>
      <trkpt lat="42.8316" lon="-0.29864">
        <ele>2810.8310546875</ele>
        <time>2014-03-11T12:35:35Z</time>
      </trkpt>
      <trkpt lat="42.83161" lon="-0.29869">
        <ele>2810.8249511719</ele>
        <time>2014-03-11T12:35:36Z</time>
      </trkpt>
      <trkpt lat="42.83167" lon="-0.29881">
        <ele>2804.8200683594</ele>
        <time>2014-03-11T12:35:39Z</time>
      </trkpt>
      <trkpt lat="42.83169" lon="-0.2989">
        <ele>2801.962890625</ele>
        <time>2014-03-11T12:35:41Z</time>
      </trkpt>
      <trkpt lat="42.83173" lon="-0.29896">
        <ele>2797.6101074219</ele>
        <time>2014-03-11T12:35:42Z</time>
      </trkpt>
      <trkpt lat="42.83175" lon="-0.29902">
        <ele>2797.6040039062</ele>
        <time>2014-03-11T12:35:43Z</time>
      </trkpt>
      <trkpt lat="42.83173" lon="-0.2991">
        <ele>2792.1520996094</ele>
        <time>2014-03-11T12:35:44Z</time>
      </trkpt>
      <trkpt lat="42.83167" lon="-0.29917">
        <ele>2792.1459960938</ele>
        <time>2014-03-11T12:35:45Z</time>
      </trkpt>
      <trkpt lat="42.83162" lon="-0.29924">
        <ele>2788.5090332031</ele>
        <time>2014-03-11T12:35:46Z</time>
      </trkpt>
      <trkpt lat="42.83157" lon="-0.29929">
        <ele>2788.5029296875</ele>
        <time>2014-03-11T12:35:47Z</time>
      </trkpt>
      <trkpt lat="42.83153" lon="-0.29937">
        <ele>2784.7719726562</ele>
        <time>2014-03-11T12:35:49Z</time>
      </trkpt>
      <trkpt lat="42.83156" lon="-0.29946">
        <ele>2781.4189453125</ele>
        <time>2014-03-11T12:35:51Z</time>
      </trkpt>
      <trkpt lat="42.83157" lon="-0.29951">
        <ele>2781.4150390625</ele>
        <time>2014-03-11T12:35:52Z</time>
      </trkpt>
      <trkpt lat="42.83157" lon="-0.29955">
        <ele>2778.0280761719</ele>
        <time>2014-03-11T12:35:53Z</time>
      </trkpt>
      <trkpt lat="42.83161" lon="-0.29965">
        <ele>2773.8269042969</ele>
        <time>2014-03-11T12:35:56Z</time>
      </trkpt>
      <trkpt lat="42.83162" lon="-0.29966">
        <ele>2773.8220214844</ele>
        <time>2014-03-11T12:35:57Z</time>
      </trkpt>
      <trkpt lat="42.83162" lon="-0.29967">
        <ele>2772.4699707031</ele>
        <time>2014-03-11T12:36:14Z</time>
      </trkpt>
      <trkpt lat="42.83168" lon="-0.29969">
        <ele>2771.3669433594</ele>
        <time>2014-03-11T12:38:18Z</time>
      </trkpt>
      <trkpt lat="42.8318" lon="-0.29972">
        <ele>2767.8491210938</ele>
        <time>2014-03-11T12:38:22Z</time>
      </trkpt>
      <trkpt lat="42.83183" lon="-0.29982">
        <ele>2766.3190917969</ele>
        <time>2014-03-11T12:38:25Z</time>
      </trkpt>
      <trkpt lat="42.83184" lon="-0.2999">
        <ele>2763.9270019531</ele>
        <time>2014-03-11T12:38:27Z</time>
      </trkpt>
      <trkpt lat="42.83183" lon="-0.29997">
        <ele>2758.62890625</ele>
        <time>2014-03-11T12:38:29Z</time>
      </trkpt>
      <trkpt lat="42.83183" lon="-0.30001">
        <ele>2758.623046875</ele>
        <time>2014-03-11T12:38:30Z</time>
      </trkpt>
      <trkpt lat="42.83183" lon="-0.3001">
        <ele>2756.8549804688</ele>
        <time>2014-03-11T12:38:32Z</time>
      </trkpt>
      <trkpt lat="42.83187" lon="-0.30014">
        <ele>2753.1850585938</ele>
        <time>2014-03-11T12:38:33Z</time>
      </trkpt>
      <trkpt lat="42.83186" lon="-0.30018">
        <ele>2753.1779785156</ele>
        <time>2014-03-11T12:38:34Z</time>
      </trkpt>
      <trkpt lat="42.83176" lon="-0.30029">
        <ele>2748.0610351562</ele>
        <time>2014-03-11T12:38:37Z</time>
      </trkpt>
      <trkpt lat="42.83169" lon="-0.30033">
        <ele>2746.5939941406</ele>
        <time>2014-03-11T12:38:39Z</time>
      </trkpt>
      <trkpt lat="42.83163" lon="-0.30038">
        <ele>2745.2790527344</ele>
        <time>2014-03-11T12:38:41Z</time>
      </trkpt>
      <trkpt lat="42.83154" lon="-0.30045">
        <ele>2743.5891113281</ele>
        <time>2014-03-11T12:38:44Z</time>
      </trkpt>
      <trkpt lat="42.83153" lon="-0.30051">
        <ele>2742.3859863281</ele>
        <time>2014-03-11T12:38:46Z</time>
      </trkpt>
      <trkpt lat="42.83156" lon="-0.30055">
        <ele>2738.6931152344</ele>
        <time>2014-03-11T12:38:47Z</time>
      </trkpt>
      <trkpt lat="42.83157" lon="-0.30059">
        <ele>2738.6889648438</ele>
        <time>2014-03-11T12:38:48Z</time>
      </trkpt>
      <trkpt lat="42.83156" lon="-0.30066">
        <ele>2734.3369140625</ele>
        <time>2014-03-11T12:38:49Z</time>
      </trkpt>
      <trkpt lat="42.83153" lon="-0.30071">
        <ele>2734.3359375</ele>
        <time>2014-03-11T12:38:50Z</time>
      </trkpt>
      <trkpt lat="42.83147" lon="-0.30081">
        <ele>2728.91796875</ele>
        <time>2014-03-11T12:38:52Z</time>
      </trkpt>
      <trkpt lat="42.83155" lon="-0.30086">
        <ele>2725.2338867188</ele>
        <time>2014-03-11T12:38:54Z</time>
      </trkpt>
      <trkpt lat="42.83162" lon="-0.30087">
        <ele>2725.2329101562</ele>
        <time>2014-03-11T12:38:55Z</time>
      </trkpt>
      <trkpt lat="42.8317" lon="-0.30086">
        <ele>2723.1770019531</ele>
        <time>2014-03-11T12:38:57Z</time>
      </trkpt>
      <trkpt lat="42.8318" lon="-0.30087">
        <ele>2721.4899902344</ele>
        <time>2014-03-11T12:39:00Z</time>
      </trkpt>
      <trkpt lat="42.83189" lon="-0.30087">
        <ele>2719.7690429688</ele>
        <time>2014-03-11T12:39:02Z</time>
      </trkpt>
      <trkpt lat="42.832" lon="-0.30088">
        <ele>2718.1130371094</ele>
        <time>2014-03-11T12:39:04Z</time>
      </trkpt>
      <trkpt lat="42.83212" lon="-0.30091">
        <ele>2714.7119140625</ele>
        <time>2014-03-11T12:39:06Z</time>
      </trkpt>
      <trkpt lat="42.83218" lon="-0.30094">
        <ele>2714.708984375</ele>
        <time>2014-03-11T12:39:07Z</time>
      </trkpt>
      <trkpt lat="42.83232" lon="-0.30101">
        <ele>2712.9450683594</ele>
        <time>2014-03-11T12:39:09Z</time>
      </trkpt>
      <trkpt lat="42.83246" lon="-0.30108">
        <ele>2710.6940917969</ele>
        <time>2014-03-11T12:39:11Z</time>
      </trkpt>
      <trkpt lat="42.83265" lon="-0.30116">
        <ele>2708.7189941406</ele>
        <time>2014-03-11T12:39:14Z</time>
      </trkpt>
      <trkpt lat="42.8329" lon="-0.30117">
        <ele>2705.5258789062</ele>
        <time>2014-03-11T12:39:21Z</time>
      </trkpt>
      <trkpt lat="42.83289" lon="-0.30116">
        <ele>2705.4221191406</ele>
        <time>2014-03-11T12:39:31Z</time>
      </trkpt>
      <trkpt lat="42.83293" lon="-0.3012">
        <ele>2705.1059570312</ele>
        <time>2014-03-11T12:39:34Z</time>
      </trkpt>
      <trkpt lat="42.83296" lon="-0.30131">
        <ele>2700.3059082031</ele>
        <time>2014-03-11T12:39:37Z</time>
      </trkpt>
      <trkpt lat="42.83297" lon="-0.30141">
        <ele>2697.7990722656</ele>
        <time>2014-03-11T12:39:39Z</time>
      </trkpt>
      <trkpt lat="42.833" lon="-0.30144">
        <ele>2693.5778808594</ele>
        <time>2014-03-11T12:39:40Z</time>
      </trkpt>
      <trkpt lat="42.83301" lon="-0.30148">
        <ele>2693.5700683594</ele>
        <time>2014-03-11T12:39:41Z</time>
      </trkpt>
      <trkpt lat="42.833" lon="-0.30159">
        <ele>2686.4169921875</ele>
        <time>2014-03-11T12:39:43Z</time>
      </trkpt>
      <trkpt lat="42.83301" lon="-0.30163">
        <ele>2686.4089355469</ele>
        <time>2014-03-11T12:39:44Z</time>
      </trkpt>
      <trkpt lat="42.83307" lon="-0.30176">
        <ele>2678.7570800781</ele>
        <time>2014-03-11T12:39:47Z</time>
      </trkpt>
      <trkpt lat="42.83309" lon="-0.30182">
        <ele>2678.75</ele>
        <time>2014-03-11T12:39:48Z</time>
      </trkpt>
      <trkpt lat="42.83311" lon="-0.30189">
        <ele>2674.1889648438</ele>
        <time>2014-03-11T12:39:49Z</time>
      </trkpt>
      <trkpt lat="42.83319" lon="-0.30194">
        <ele>2667.2670898438</ele>
        <time>2014-03-11T12:39:50Z</time>
      </trkpt>
      <trkpt lat="42.83329" lon="-0.30198">
        <ele>2667.2609863281</ele>
        <time>2014-03-11T12:39:51Z</time>
      </trkpt>
      <trkpt lat="42.8335" lon="-0.30209">
        <ele>2661.20703125</ele>
        <time>2014-03-11T12:39:53Z</time>
      </trkpt>
      <trkpt lat="42.83369" lon="-0.30218">
        <ele>2658.5380859375</ele>
        <time>2014-03-11T12:39:55Z</time>
      </trkpt>
      <trkpt lat="42.83376" lon="-0.30222">
        <ele>2657.99609375</ele>
        <time>2014-03-11T12:39:56Z</time>
      </trkpt>
      <trkpt lat="42.83395" lon="-0.30236">
        <ele>2658.5239257812</ele>
        <time>2014-03-11T12:40:04Z</time>
      </trkpt>
      <trkpt lat="42.83395" lon="-0.30236">
        <ele>2658.2470703125</ele>
        <time>2014-03-11T12:40:10Z</time>
      </trkpt>
      <trkpt lat="42.8339" lon="-0.3024">
        <ele>2654.8269042969</ele>
        <time>2014-03-11T12:40:13Z</time>
      </trkpt>
      <trkpt lat="42.8339" lon="-0.3025">
        <ele>2651.0090332031</ele>
        <time>2014-03-11T12:40:15Z</time>
      </trkpt>
      <trkpt lat="42.83392" lon="-0.30256">
        <ele>2651.001953125</ele>
        <time>2014-03-11T12:40:16Z</time>
      </trkpt>
      <trkpt lat="42.83396" lon="-0.30263">
        <ele>2646.9079589844</ele>
        <time>2014-03-11T12:40:17Z</time>
      </trkpt>
      <trkpt lat="42.834" lon="-0.30271">
        <ele>2646.9008789062</ele>
        <time>2014-03-11T12:40:18Z</time>
      </trkpt>
      <trkpt lat="42.83402" lon="-0.30279">
        <ele>2642.8120117188</ele>
        <time>2014-03-11T12:40:19Z</time>
      </trkpt>
      <trkpt lat="42.83406" lon="-0.30288">
        <ele>2640.9470214844</ele>
        <time>2014-03-11T12:40:20Z</time>
      </trkpt>
      <trkpt lat="42.83418" lon="-0.30314">
        <ele>2638.8811035156</ele>
        <time>2014-03-11T12:40:24Z</time>
      </trkpt>
      <trkpt lat="42.83431" lon="-0.30344">
        <ele>2636.6750488281</ele>
        <time>2014-03-11T12:40:35Z</time>
      </trkpt>
      <trkpt lat="42.8343" lon="-0.30344">
        <ele>2636.2160644531</ele>
        <time>2014-03-11T12:41:43Z</time>
      </trkpt>
      <trkpt lat="42.8343" lon="-0.30345">
        <ele>2635.8588867188</ele>
        <time>2014-03-11T12:42:02Z</time>
      </trkpt>
      <trkpt lat="42.83424" lon="-0.30344">
        <ele>2634.2370605469</ele>
        <time>2014-03-11T12:42:05Z</time>
      </trkpt>
      <trkpt lat="42.83419" lon="-0.30341">
        <ele>2630.6589355469</ele>
        <time>2014-03-11T12:42:06Z</time>
      </trkpt>
      <trkpt lat="42.83414" lon="-0.30338">
        <ele>2630.6520996094</ele>
        <time>2014-03-11T12:42:07Z</time>
      </trkpt>
      <trkpt lat="42.83405" lon="-0.30332">
        <ele>2626.2260742188</ele>
        <time>2014-03-11T12:42:09Z</time>
      </trkpt>
      <trkpt lat="42.8338" lon="-0.30334">
        <ele>2625.1130371094</ele>
        <time>2014-03-11T12:42:14Z</time>
      </trkpt>
      <trkpt lat="42.8337" lon="-0.30343">
        <ele>2623.0778808594</ele>
        <time>2014-03-11T12:42:16Z</time>
      </trkpt>
      <trkpt lat="42.8336" lon="-0.30358">
        <ele>2616.1579589844</ele>
        <time>2014-03-11T12:42:18Z</time>
      </trkpt>
      <trkpt lat="42.83353" lon="-0.30363">
        <ele>2616.1530761719</ele>
        <time>2014-03-11T12:42:19Z</time>
      </trkpt>
      <trkpt lat="42.83339" lon="-0.30366">
        <ele>2613.3310546875</ele>
        <time>2014-03-11T12:42:21Z</time>
      </trkpt>
      <trkpt lat="42.83313" lon="-0.30365">
        <ele>2612.0390625</ele>
        <time>2014-03-11T12:42:26Z</time>
      </trkpt>
      <trkpt lat="42.83308" lon="-0.30381">
        <ele>2607.1540527344</ele>
        <time>2014-03-11T12:42:29Z</time>
      </trkpt>
      <trkpt lat="42.83311" lon="-0.30388">
        <ele>2607.1499023438</ele>
        <time>2014-03-11T12:42:30Z</time>
      </trkpt>
      <trkpt lat="42.83319" lon="-0.30398">
        <ele>2602.8439941406</ele>
        <time>2014-03-11T12:42:32Z</time>
      </trkpt>
      <trkpt lat="42.83327" lon="-0.30403">
        <ele>2603.7570800781</ele>
        <time>2014-03-11T12:42:43Z</time>
      </trkpt>
      <trkpt lat="42.83327" lon="-0.30403">
        <ele>2603.2849121094</ele>
        <time>2014-03-11T12:42:50Z</time>
      </trkpt>
      <trkpt lat="42.83317" lon="-0.30413">
        <ele>2600.4040527344</ele>
        <time>2014-03-11T12:42:54Z</time>
      </trkpt>
      <trkpt lat="42.83312" lon="-0.30414">
        <ele>2597.2529296875</ele>
        <time>2014-03-11T12:42:55Z</time>
      </trkpt>
      <trkpt lat="42.83303" lon="-0.30427">
        <ele>2594.6879882812</ele>
        <time>2014-03-11T12:42:58Z</time>
      </trkpt>
      <trkpt lat="42.83304" lon="-0.30435">
        <ele>2590.1159667969</ele>
        <time>2014-03-11T12:42:59Z</time>
      </trkpt>
      <trkpt lat="42.83306" lon="-0.30442">
        <ele>2590.1088867188</ele>
        <time>2014-03-11T12:43:00Z</time>
      </trkpt>
      <trkpt lat="42.83314" lon="-0.30459">
        <ele>2584.1179199219</ele>
        <time>2014-03-11T12:43:03Z</time>
      </trkpt>
      <trkpt lat="42.8331" lon="-0.30468">
        <ele>2582.8688964844</ele>
        <time>2014-03-11T12:43:05Z</time>
      </trkpt>
      <trkpt lat="42.83308" lon="-0.3048">
        <ele>2580.1530761719</ele>
        <time>2014-03-11T12:43:07Z</time>
      </trkpt>
      <trkpt lat="42.8331" lon="-0.30487">
        <ele>2575.6599121094</ele>
        <time>2014-03-11T12:43:08Z</time>
      </trkpt>
      <trkpt lat="42.83313" lon="-0.30493">
        <ele>2572.462890625</ele>
        <time>2014-03-11T12:43:09Z</time>
      </trkpt>
      <trkpt lat="42.83326" lon="-0.30508">
        <ele>2570.1430664062</ele>
        <time>2014-03-11T12:43:12Z</time>
      </trkpt>
      <trkpt lat="42.83335" lon="-0.30517">
        <ele>2567.9108886719</ele>
        <time>2014-03-11T12:43:14Z</time>
      </trkpt>
      <trkpt lat="42.83347" lon="-0.30526">
        <ele>2565.1970214844</ele>
        <time>2014-03-11T12:43:17Z</time>
      </trkpt>
      <trkpt lat="42.83359" lon="-0.30532">
        <ele>2563.0209960938</ele>
        <time>2014-03-11T12:43:21Z</time>
      </trkpt>
      <trkpt lat="42.83368" lon="-0.30537">
        <ele>2560.2600097656</ele>
        <time>2014-03-11T12:43:24Z</time>
      </trkpt>
      <trkpt lat="42.83373" lon="-0.3054">
        <ele>2558.5629882812</ele>
        <time>2014-03-11T12:43:26Z</time>
      </trkpt>
      <trkpt lat="42.83379" lon="-0.30543">
        <ele>2556.8669433594</ele>
        <time>2014-03-11T12:43:28Z</time>
      </trkpt>
      <trkpt lat="42.83385" lon="-0.30547">
        <ele>2553.0649414062</ele>
        <time>2014-03-11T12:43:30Z</time>
      </trkpt>
      <trkpt lat="42.83388" lon="-0.3055">
        <ele>2553.0568847656</ele>
        <time>2014-03-11T12:43:31Z</time>
      </trkpt>
      <trkpt lat="42.83393" lon="-0.30553">
        <ele>2551.5729980469</ele>
        <time>2014-03-11T12:43:33Z</time>
      </trkpt>
      <trkpt lat="42.83398" lon="-0.30555">
        <ele>2550.2990722656</ele>
        <time>2014-03-11T12:43:35Z</time>
      </trkpt>
      <trkpt lat="42.83416" lon="-0.30557">
        <ele>2546.5439453125</ele>
        <time>2014-03-11T12:43:41Z</time>
      </trkpt>
      <trkpt lat="42.8342" lon="-0.30557">
        <ele>2546.5358886719</ele>
        <time>2014-03-11T12:43:42Z</time>
      </trkpt>
      <trkpt lat="42.83433" lon="-0.30554">
        <ele>2543.623046875</ele>
        <time>2014-03-11T12:43:45Z</time>
      </trkpt>
      <trkpt lat="42.83466" lon="-0.30539">
        <ele>2539.9250488281</ele>
        <time>2014-03-11T12:43:55Z</time>
      </trkpt>
      <trkpt lat="42.83503" lon="-0.30522">
        <ele>2536.4528808594</ele>
        <time>2014-03-11T12:44:09Z</time>
      </trkpt>
      <trkpt lat="42.83542" lon="-0.30508">
        <ele>2533.4509277344</ele>
        <time>2014-03-11T12:44:23Z</time>
      </trkpt>
      <trkpt lat="42.83569" lon="-0.30488">
        <ele>2531.3278808594</ele>
        <time>2014-03-11T12:44:32Z</time>
      </trkpt>
      <trkpt lat="42.83574" lon="-0.30478">
        <ele>2531.1779785156</ele>
        <time>2014-03-11T12:44:41Z</time>
      </trkpt>
      <trkpt lat="42.83575" lon="-0.30477">
        <ele>2530.5529785156</ele>
        <time>2014-03-11T12:45:21Z</time>
      </trkpt>
      <trkpt lat="42.83586" lon="-0.30469">
        <ele>2530.8640136719</ele>
        <time>2014-03-11T12:46:10Z</time>
      </trkpt>
      <trkpt lat="42.83587" lon="-0.30469">
        <ele>2530.6740722656</ele>
        <time>2014-03-11T12:46:29Z</time>
      </trkpt>
      <trkpt lat="42.83592" lon="-0.30474">
        <ele>2530.5458984375</ele>
        <time>2014-03-11T12:46:55Z</time>
      </trkpt>
      <trkpt lat="42.83591" lon="-0.30474">
        <ele>2530.3649902344</ele>
        <time>2014-03-11T12:47:35Z</time>
      </trkpt>
      <trkpt lat="42.8359" lon="-0.30471">
        <ele>2529.1330566406</ele>
        <time>2014-03-11T12:48:30Z</time>
      </trkpt>
      <trkpt lat="42.83588" lon="-0.3045">
        <ele>2527.1149902344</ele>
        <time>2014-03-11T12:48:37Z</time>
      </trkpt>
      <trkpt lat="42.83589" lon="-0.30439">
        <ele>2526.3500976562</ele>
        <time>2014-03-11T12:48:39Z</time>
      </trkpt>
      <trkpt lat="42.8359" lon="-0.30428">
        <ele>2524.3669433594</ele>
        <time>2014-03-11T12:48:41Z</time>
      </trkpt>
      <trkpt lat="42.8359" lon="-0.30424">
        <ele>2523.6179199219</ele>
        <time>2014-03-11T12:48:42Z</time>
      </trkpt>
      <trkpt lat="42.83598" lon="-0.30423">
        <ele>2519.8701171875</ele>
        <time>2014-03-11T12:48:45Z</time>
      </trkpt>
      <trkpt lat="42.83599" lon="-0.30423">
        <ele>2519.8601074219</ele>
        <time>2014-03-11T12:48:46Z</time>
      </trkpt>
      <trkpt lat="42.83602" lon="-0.30417">
        <ele>2517.0729980469</ele>
        <time>2014-03-11T12:48:48Z</time>
      </trkpt>
      <trkpt lat="42.83607" lon="-0.30416">
        <ele>2514.8400878906</ele>
        <time>2014-03-11T12:48:50Z</time>
      </trkpt>
      <trkpt lat="42.83616" lon="-0.30416">
        <ele>2508.7619628906</ele>
        <time>2014-03-11T12:48:53Z</time>
      </trkpt>
      <trkpt lat="42.8362" lon="-0.30414">
        <ele>2505.1049804688</ele>
        <time>2014-03-11T12:48:54Z</time>
      </trkpt>
      <trkpt lat="42.83622" lon="-0.30411">
        <ele>2505.0979003906</ele>
        <time>2014-03-11T12:48:55Z</time>
      </trkpt>
      <trkpt lat="42.83623" lon="-0.30409">
        <ele>2501.4851074219</ele>
        <time>2014-03-11T12:48:56Z</time>
      </trkpt>
      <trkpt lat="42.83629" lon="-0.30416">
        <ele>2498.7028808594</ele>
        <time>2014-03-11T12:48:58Z</time>
      </trkpt>
      <trkpt lat="42.83636" lon="-0.30416">
        <ele>2493.0148925781</ele>
        <time>2014-03-11T12:49:01Z</time>
      </trkpt>
      <trkpt lat="42.8364" lon="-0.30422">
        <ele>2493.0100097656</ele>
        <time>2014-03-11T12:49:02Z</time>
      </trkpt>
      <trkpt lat="42.83642" lon="-0.30428">
        <ele>2489.0490722656</ele>
        <time>2014-03-11T12:49:03Z</time>
      </trkpt>
      <trkpt lat="42.83644" lon="-0.30436">
        <ele>2489.0458984375</ele>
        <time>2014-03-11T12:49:04Z</time>
      </trkpt>
      <trkpt lat="42.83647" lon="-0.30453">
        <ele>2487.0170898438</ele>
        <time>2014-03-11T12:49:06Z</time>
      </trkpt>
      <trkpt lat="42.83649" lon="-0.30476">
        <ele>2483.8068847656</ele>
        <time>2014-03-11T12:49:09Z</time>
      </trkpt>
      <trkpt lat="42.83659" lon="-0.30513">
        <ele>2481.3930664062</ele>
        <time>2014-03-11T12:49:18Z</time>
      </trkpt>
      <trkpt lat="42.83661" lon="-0.30533">
        <ele>2479.37890625</ele>
        <time>2014-03-11T12:49:23Z</time>
      </trkpt>
      <trkpt lat="42.83665" lon="-0.30548">
        <ele>2477.3640136719</ele>
        <time>2014-03-11T12:49:27Z</time>
      </trkpt>
      <trkpt lat="42.83667" lon="-0.30552">
        <ele>2476.2219238281</ele>
        <time>2014-03-11T12:49:33Z</time>
      </trkpt>
      <trkpt lat="42.83675" lon="-0.30551">
        <ele>2474.6630859375</ele>
        <time>2014-03-11T12:49:36Z</time>
      </trkpt>
      <trkpt lat="42.8368" lon="-0.30554">
        <ele>2471.4450683594</ele>
        <time>2014-03-11T12:49:37Z</time>
      </trkpt>
      <trkpt lat="42.83685" lon="-0.30558">
        <ele>2468.0859375</ele>
        <time>2014-03-11T12:49:38Z</time>
      </trkpt>
      <trkpt lat="42.83693" lon="-0.30568">
        <ele>2466.4890136719</ele>
        <time>2014-03-11T12:49:41Z</time>
      </trkpt>
      <trkpt lat="42.83693" lon="-0.30568">
        <ele>2466.7299804688</ele>
        <time>2014-03-11T12:49:43Z</time>
      </trkpt>
      <trkpt lat="42.83695" lon="-0.30564">
        <ele>2464.4470214844</ele>
        <time>2014-03-11T12:49:45Z</time>
      </trkpt>
      <trkpt lat="42.83704" lon="-0.30557">
        <ele>2462.2399902344</ele>
        <time>2014-03-11T12:49:48Z</time>
      </trkpt>
      <trkpt lat="42.83712" lon="-0.30563">
        <ele>2459.3310546875</ele>
        <time>2014-03-11T12:49:50Z</time>
      </trkpt>
      <trkpt lat="42.83715" lon="-0.30569">
        <ele>2456.4130859375</ele>
        <time>2014-03-11T12:49:51Z</time>
      </trkpt>
      <trkpt lat="42.83723" lon="-0.30582">
        <ele>2454.1860351562</ele>
        <time>2014-03-11T12:49:53Z</time>
      </trkpt>
      <trkpt lat="42.83727" lon="-0.30598">
        <ele>2453.0358886719</ele>
        <time>2014-03-11T12:49:55Z</time>
      </trkpt>
      <trkpt lat="42.8373" lon="-0.30612">
        <ele>2451.5930175781</ele>
        <time>2014-03-11T12:49:57Z</time>
      </trkpt>
      <trkpt lat="42.83736" lon="-0.30632">
        <ele>2450.0490722656</ele>
        <time>2014-03-11T12:50:00Z</time>
      </trkpt>
      <trkpt lat="42.83739" lon="-0.30659">
        <ele>2447.7849121094</ele>
        <time>2014-03-11T12:50:06Z</time>
      </trkpt>
      <trkpt lat="42.83742" lon="-0.30667">
        <ele>2447.1411132812</ele>
        <time>2014-03-11T12:50:16Z</time>
      </trkpt>
      <trkpt lat="42.83743" lon="-0.30679">
        <ele>2445.4541015625</ele>
        <time>2014-03-11T12:50:18Z</time>
      </trkpt>
      <trkpt lat="42.83747" lon="-0.3069">
        <ele>2443.5539550781</ele>
        <time>2014-03-11T12:50:20Z</time>
      </trkpt>
      <trkpt lat="42.83749" lon="-0.30694">
        <ele>2442.7770996094</ele>
        <time>2014-03-11T12:50:21Z</time>
      </trkpt>
      <trkpt lat="42.83753" lon="-0.30701">
        <ele>2441.3559570312</ele>
        <time>2014-03-11T12:50:23Z</time>
      </trkpt>
      <trkpt lat="42.83755" lon="-0.30703">
        <ele>2439.8740234375</ele>
        <time>2014-03-11T12:50:25Z</time>
      </trkpt>
      <trkpt lat="42.83759" lon="-0.30698">
        <ele>2438.0979003906</ele>
        <time>2014-03-11T12:50:27Z</time>
      </trkpt>
      <trkpt lat="42.83767" lon="-0.30702">
        <ele>2431.3679199219</ele>
        <time>2014-03-11T12:50:29Z</time>
      </trkpt>
      <trkpt lat="42.8377" lon="-0.30708">
        <ele>2431.37109375</ele>
        <time>2014-03-11T12:50:30Z</time>
      </trkpt>
      <trkpt lat="42.83775" lon="-0.30717">
        <ele>2429.875</ele>
        <time>2014-03-11T12:50:32Z</time>
      </trkpt>
      <trkpt lat="42.83783" lon="-0.30732">
        <ele>2428.8610839844</ele>
        <time>2014-03-11T12:50:36Z</time>
      </trkpt>
      <trkpt lat="42.83796" lon="-0.30736">
        <ele>2428.4479980469</ele>
        <time>2014-03-11T12:50:39Z</time>
      </trkpt>
      <trkpt lat="42.83802" lon="-0.30742">
        <ele>2426.9990234375</ele>
        <time>2014-03-11T12:50:41Z</time>
      </trkpt>
      <trkpt lat="42.83804" lon="-0.30749">
        <ele>2427.0419921875</ele>
        <time>2014-03-11T12:50:44Z</time>
      </trkpt>
      <trkpt lat="42.83804" lon="-0.30756">
        <ele>2426.9689941406</ele>
        <time>2014-03-11T12:51:06Z</time>
      </trkpt>
      <trkpt lat="42.83804" lon="-0.30759">
        <ele>2426.6420898438</ele>
        <time>2014-03-11T12:51:20Z</time>
      </trkpt>
      <trkpt lat="42.83797" lon="-0.3078">
        <ele>2425.5319824219</ele>
        <time>2014-03-11T12:51:33Z</time>
      </trkpt>
      <trkpt lat="42.83797" lon="-0.3078">
        <ele>2425.1369628906</ele>
        <time>2014-03-11T12:52:34Z</time>
      </trkpt>
      <trkpt lat="42.83801" lon="-0.30789">
        <ele>2424.6359863281</ele>
        <time>2014-03-11T12:52:37Z</time>
      </trkpt>
      <trkpt lat="42.83804" lon="-0.30801">
        <ele>2423.1950683594</ele>
        <time>2014-03-11T12:52:39Z</time>
      </trkpt>
      <trkpt lat="42.83807" lon="-0.30817">
        <ele>2419.9560546875</ele>
        <time>2014-03-11T12:52:41Z</time>
      </trkpt>
      <trkpt lat="42.83804" lon="-0.30829">
        <ele>2419.6940917969</ele>
        <time>2014-03-11T12:52:47Z</time>
      </trkpt>
      <trkpt lat="42.83802" lon="-0.30834">
        <ele>2419.3930664062</ele>
        <time>2014-03-11T12:53:43Z</time>
      </trkpt>
      <trkpt lat="42.83802" lon="-0.30841">
        <ele>2418.6608886719</ele>
        <time>2014-03-11T12:53:46Z</time>
      </trkpt>
      <trkpt lat="42.83797" lon="-0.3087">
        <ele>2414.9318847656</ele>
        <time>2014-03-11T12:53:54Z</time>
      </trkpt>
      <trkpt lat="42.83797" lon="-0.30877">
        <ele>2414.0668945312</ele>
        <time>2014-03-11T12:53:56Z</time>
      </trkpt>
      <trkpt lat="42.83797" lon="-0.3088">
        <ele>2412.5239257812</ele>
        <time>2014-03-11T12:53:57Z</time>
      </trkpt>
      <trkpt lat="42.83809" lon="-0.30887">
        <ele>2410.0419921875</ele>
        <time>2014-03-11T12:54:00Z</time>
      </trkpt>
      <trkpt lat="42.83815" lon="-0.30889">
        <ele>2408.5009765625</ele>
        <time>2014-03-11T12:54:02Z</time>
      </trkpt>
      <trkpt lat="42.83803" lon="-0.30909">
        <ele>2403.4389648438</ele>
        <time>2014-03-11T12:54:06Z</time>
      </trkpt>
      <trkpt lat="42.83802" lon="-0.30916">
        <ele>2403.4360351562</ele>
        <time>2014-03-11T12:54:07Z</time>
      </trkpt>
      <trkpt lat="42.83801" lon="-0.30921">
        <ele>2403.544921875</ele>
        <time>2014-03-11T12:54:12Z</time>
      </trkpt>
      <trkpt lat="42.83814" lon="-0.30917">
        <ele>2397.4938964844</ele>
        <time>2014-03-11T12:54:16Z</time>
      </trkpt>
      <trkpt lat="42.83817" lon="-0.30921">
        <ele>2397.4909667969</ele>
        <time>2014-03-11T12:54:17Z</time>
      </trkpt>
      <trkpt lat="42.83816" lon="-0.30933">
        <ele>2394.6669921875</ele>
        <time>2014-03-11T12:54:19Z</time>
      </trkpt>
      <trkpt lat="42.83815" lon="-0.30944">
        <ele>2391.9870605469</ele>
        <time>2014-03-11T12:54:21Z</time>
      </trkpt>
      <trkpt lat="42.83815" lon="-0.30951">
        <ele>2388.205078125</ele>
        <time>2014-03-11T12:54:23Z</time>
      </trkpt>
      <trkpt lat="42.83814" lon="-0.30954">
        <ele>2388.2028808594</ele>
        <time>2014-03-11T12:54:24Z</time>
      </trkpt>
      <trkpt lat="42.83814" lon="-0.30957">
        <ele>2387.8869628906</ele>
        <time>2014-03-11T12:54:39Z</time>
      </trkpt>
      <trkpt lat="42.83814" lon="-0.30969">
        <ele>2384.2561035156</ele>
        <time>2014-03-11T12:55:06Z</time>
      </trkpt>
      <trkpt lat="42.83817" lon="-0.30977">
        <ele>2381.3159179688</ele>
        <time>2014-03-11T12:55:48Z</time>
      </trkpt>
      <trkpt lat="42.83823" lon="-0.30979">
        <ele>2377.375</ele>
        <time>2014-03-11T12:55:50Z</time>
      </trkpt>
      <trkpt lat="42.83829" lon="-0.30975">
        <ele>2375.1520996094</ele>
        <time>2014-03-11T12:55:52Z</time>
      </trkpt>
      <trkpt lat="42.83831" lon="-0.30974">
        <ele>2374.7548828125</ele>
        <time>2014-03-11T12:55:53Z</time>
      </trkpt>
      <trkpt lat="42.83841" lon="-0.30976">
        <ele>2374.1430664062</ele>
        <time>2014-03-11T12:55:57Z</time>
      </trkpt>
      <trkpt lat="42.83858" lon="-0.30989">
        <ele>2370.8520507812</ele>
        <time>2014-03-11T12:56:06Z</time>
      </trkpt>
      <trkpt lat="42.83863" lon="-0.30992">
        <ele>2370.0358886719</ele>
        <time>2014-03-11T12:56:08Z</time>
      </trkpt>
      <trkpt lat="42.83866" lon="-0.30993">
        <ele>2368.416015625</ele>
        <time>2014-03-11T12:56:10Z</time>
      </trkpt>
      <trkpt lat="42.83868" lon="-0.30992">
        <ele>2368.2141113281</ele>
        <time>2014-03-11T12:56:15Z</time>
      </trkpt>
      <trkpt lat="42.83871" lon="-0.30997">
        <ele>2366.4089355469</ele>
        <time>2014-03-11T12:56:18Z</time>
      </trkpt>
      <trkpt lat="42.83867" lon="-0.31003">
        <ele>2362.4799804688</ele>
        <time>2014-03-11T12:56:20Z</time>
      </trkpt>
      <trkpt lat="42.83863" lon="-0.31005">
        <ele>2360.708984375</ele>
        <time>2014-03-11T12:56:22Z</time>
      </trkpt>
      <trkpt lat="42.83864" lon="-0.3101">
        <ele>2358.6101074219</ele>
        <time>2014-03-11T12:56:24Z</time>
      </trkpt>
      <trkpt lat="42.83865" lon="-0.31013">
        <ele>2355.3420410156</ele>
        <time>2014-03-11T12:56:25Z</time>
      </trkpt>
      <trkpt lat="42.83866" lon="-0.31016">
        <ele>2355.3400878906</ele>
        <time>2014-03-11T12:56:26Z</time>
      </trkpt>
      <trkpt lat="42.8386" lon="-0.31023">
        <ele>2350.1750488281</ele>
        <time>2014-03-11T12:56:28Z</time>
      </trkpt>
      <trkpt lat="42.83855" lon="-0.31027">
        <ele>2350.1740722656</ele>
        <time>2014-03-11T12:56:29Z</time>
      </trkpt>
      <trkpt lat="42.83852" lon="-0.3103">
        <ele>2346.7619628906</ele>
        <time>2014-03-11T12:56:31Z</time>
      </trkpt>
      <trkpt lat="42.83853" lon="-0.3103">
        <ele>2345.2490234375</ele>
        <time>2014-03-11T12:56:38Z</time>
      </trkpt>
      <trkpt lat="42.83856" lon="-0.31036">
        <ele>2342.5161132812</ele>
        <time>2014-03-11T12:56:42Z</time>
      </trkpt>
      <trkpt lat="42.83855" lon="-0.31037">
        <ele>2341.8520507812</ele>
        <time>2014-03-11T12:56:43Z</time>
      </trkpt>
      <trkpt lat="42.83854" lon="-0.31048">
        <ele>2338.1750488281</ele>
        <time>2014-03-11T12:56:46Z</time>
      </trkpt>
      <trkpt lat="42.83854" lon="-0.31052">
        <ele>2338.1740722656</ele>
        <time>2014-03-11T12:56:47Z</time>
      </trkpt>
      <trkpt lat="42.83856" lon="-0.31053">
        <ele>2335.1369628906</ele>
        <time>2014-03-11T12:56:50Z</time>
      </trkpt>
      <trkpt lat="42.83856" lon="-0.31053">
        <ele>2334.8190917969</ele>
        <time>2014-03-11T12:56:51Z</time>
      </trkpt>
      <trkpt lat="42.83857" lon="-0.31062">
        <ele>2332.7990722656</ele>
        <time>2014-03-11T12:56:56Z</time>
      </trkpt>
      <trkpt lat="42.8386" lon="-0.31061">
        <ele>2330.49609375</ele>
        <time>2014-03-11T12:56:59Z</time>
      </trkpt>
      <trkpt lat="42.83859" lon="-0.31068">
        <ele>2329.3110351562</ele>
        <time>2014-03-11T12:57:01Z</time>
      </trkpt>
      <trkpt lat="42.83858" lon="-0.31073">
        <ele>2326.8369140625</ele>
        <time>2014-03-11T12:57:03Z</time>
      </trkpt>
      <trkpt lat="42.83858" lon="-0.31073">
        <ele>2325.4250488281</ele>
        <time>2014-03-11T12:57:06Z</time>
      </trkpt>
      <trkpt lat="42.83861" lon="-0.31074">
        <ele>2323.5668945312</ele>
        <time>2014-03-11T12:57:13Z</time>
      </trkpt>
      <trkpt lat="42.83863" lon="-0.31078">
        <ele>2321.0529785156</ele>
        <time>2014-03-11T12:57:26Z</time>
      </trkpt>
      <trkpt lat="42.83864" lon="-0.31079">
        <ele>2320.0810546875</ele>
        <time>2014-03-11T12:57:30Z</time>
      </trkpt>
      <trkpt lat="42.8387" lon="-0.31082">
        <ele>2318.7299804688</ele>
        <time>2014-03-11T12:57:41Z</time>
      </trkpt>
      <trkpt lat="42.8387" lon="-0.31083">
        <ele>2318.54296875</ele>
        <time>2014-03-11T12:57:44Z</time>
      </trkpt>
      <trkpt lat="42.83864" lon="-0.31103">
        <ele>2313.5610351562</ele>
        <time>2014-03-11T12:57:48Z</time>
      </trkpt>
      <trkpt lat="42.83861" lon="-0.31112">
        <ele>2310.4360351562</ele>
        <time>2014-03-11T12:57:49Z</time>
      </trkpt>
      <trkpt lat="42.83858" lon="-0.31118">
        <ele>2310.4418945312</ele>
        <time>2014-03-11T12:57:50Z</time>
      </trkpt>
      <trkpt lat="42.83858" lon="-0.3112">
        <ele>2308.541015625</ele>
        <time>2014-03-11T12:57:56Z</time>
      </trkpt>
      <trkpt lat="42.83859" lon="-0.31119">
        <ele>2308.8120117188</ele>
        <time>2014-03-11T12:58:01Z</time>
      </trkpt>
      <trkpt lat="42.83875" lon="-0.31126">
        <ele>2304.375</ele>
        <time>2014-03-11T12:58:05Z</time>
      </trkpt>
      <trkpt lat="42.83889" lon="-0.31128">
        <ele>2299.6630859375</ele>
        <time>2014-03-11T12:58:07Z</time>
      </trkpt>
      <trkpt lat="42.83907" lon="-0.31137">
        <ele>2293.916015625</ele>
        <time>2014-03-11T12:58:09Z</time>
      </trkpt>
      <trkpt lat="42.83914" lon="-0.31135">
        <ele>2293.9230957031</ele>
        <time>2014-03-11T12:58:10Z</time>
      </trkpt>
      <trkpt lat="42.83934" lon="-0.3115">
        <ele>2293.58203125</ele>
        <time>2014-03-11T12:58:16Z</time>
      </trkpt>
      <trkpt lat="42.83946" lon="-0.31156">
        <ele>2287.0869140625</ele>
        <time>2014-03-11T12:58:19Z</time>
      </trkpt>
      <trkpt lat="42.8395" lon="-0.31158">
        <ele>2287.0869140625</ele>
        <time>2014-03-11T12:58:20Z</time>
      </trkpt>
      <trkpt lat="42.83958" lon="-0.31163">
        <ele>2284.1730957031</ele>
        <time>2014-03-11T12:58:22Z</time>
      </trkpt>
      <trkpt lat="42.83972" lon="-0.31174">
        <ele>2281.5830078125</ele>
        <time>2014-03-11T12:58:25Z</time>
      </trkpt>
      <trkpt lat="42.83981" lon="-0.3118">
        <ele>2280.1979980469</ele>
        <time>2014-03-11T12:58:27Z</time>
      </trkpt>
      <trkpt lat="42.83987" lon="-0.31184">
        <ele>2278.9489746094</ele>
        <time>2014-03-11T12:58:28Z</time>
      </trkpt>
      <trkpt lat="42.84" lon="-0.31196">
        <ele>2278.2561035156</ele>
        <time>2014-03-11T12:58:31Z</time>
      </trkpt>
      <trkpt lat="42.84029" lon="-0.31257">
        <ele>2275.2360839844</ele>
        <time>2014-03-11T12:58:44Z</time>
      </trkpt>
      <trkpt lat="42.8404" lon="-0.3127">
        <ele>2273.8669433594</ele>
        <time>2014-03-11T12:58:48Z</time>
      </trkpt>
      <trkpt lat="42.84047" lon="-0.31277">
        <ele>2272.8479003906</ele>
        <time>2014-03-11T12:58:50Z</time>
      </trkpt>
      <trkpt lat="42.84049" lon="-0.31282">
        <ele>2272.0710449219</ele>
        <time>2014-03-11T12:58:51Z</time>
      </trkpt>
      <trkpt lat="42.84056" lon="-0.31337">
        <ele>2270.2399902344</ele>
        <time>2014-03-11T12:59:02Z</time>
      </trkpt>
      <trkpt lat="42.84061" lon="-0.31357">
        <ele>2269.8090820312</ele>
        <time>2014-03-11T12:59:14Z</time>
      </trkpt>
      <trkpt lat="42.84063" lon="-0.31362">
        <ele>2271.0739746094</ele>
        <time>2014-03-11T12:59:27Z</time>
      </trkpt>
      <trkpt lat="42.84065" lon="-0.31368">
        <ele>2271.7561035156</ele>
        <time>2014-03-11T12:59:38Z</time>
      </trkpt>
      <trkpt lat="42.84068" lon="-0.3138">
        <ele>2273.1320800781</ele>
        <time>2014-03-11T12:59:59Z</time>
      </trkpt>
      <trkpt lat="42.84075" lon="-0.31388">
        <ele>2274.751953125</ele>
        <time>2014-03-11T13:00:13Z</time>
      </trkpt>
      <trkpt lat="42.84078" lon="-0.31388">
        <ele>2276.4489746094</ele>
        <time>2014-03-11T13:00:28Z</time>
      </trkpt>
      <trkpt lat="42.84086" lon="-0.31385">
        <ele>2277.5139160156</ele>
        <time>2014-03-11T13:00:49Z</time>
      </trkpt>
      <trkpt lat="42.84076" lon="-0.31384">
        <ele>2277.5759277344</ele>
        <time>2014-03-11T13:41:50Z</time>
      </trkpt>
      <trkpt lat="42.84086" lon="-0.31391">
        <ele>2277.3911132812</ele>
        <time>2014-03-11T13:42:17Z</time>
      </trkpt>
      <trkpt lat="42.84091" lon="-0.31383">
        <ele>2278.2609863281</ele>
        <time>2014-03-11T13:42:40Z</time>
      </trkpt>
      <trkpt lat="42.84092" lon="-0.31366">
        <ele>2279.1359863281</ele>
        <time>2014-03-11T13:42:59Z</time>
      </trkpt>
      <trkpt lat="42.8409" lon="-0.31351">
        <ele>2280.8149414062</ele>
        <time>2014-03-11T13:43:18Z</time>
      </trkpt>
      <trkpt lat="42.84091" lon="-0.31333">
        <ele>2283.6079101562</ele>
        <time>2014-03-11T13:43:43Z</time>
      </trkpt>
      <trkpt lat="42.84092" lon="-0.31315">
        <ele>2285.9970703125</ele>
        <time>2014-03-11T13:44:04Z</time>
      </trkpt>
      <trkpt lat="42.84093" lon="-0.31302">
        <ele>2288.4431152344</ele>
        <time>2014-03-11T13:44:23Z</time>
      </trkpt>
      <trkpt lat="42.84095" lon="-0.31286">
        <ele>2291.5749511719</ele>
        <time>2014-03-11T13:44:46Z</time>
      </trkpt>
      <trkpt lat="42.84102" lon="-0.31293">
        <ele>2294.0620117188</ele>
        <time>2014-03-11T13:45:08Z</time>
      </trkpt>
      <trkpt lat="42.84114" lon="-0.31305">
        <ele>2296.7958984375</ele>
        <time>2014-03-11T13:45:29Z</time>
      </trkpt>
      <trkpt lat="42.84119" lon="-0.31312">
        <ele>2298.54296875</ele>
        <time>2014-03-11T13:45:44Z</time>
      </trkpt>
      <trkpt lat="42.84131" lon="-0.31319">
        <ele>2300.6540527344</ele>
        <time>2014-03-11T13:46:01Z</time>
      </trkpt>
      <trkpt lat="42.84134" lon="-0.31323">
        <ele>2302.2438964844</ele>
        <time>2014-03-11T13:46:14Z</time>
      </trkpt>
      <trkpt lat="42.8413" lon="-0.31309">
        <ele>2304.3479003906</ele>
        <time>2014-03-11T13:46:30Z</time>
      </trkpt>
      <trkpt lat="42.84127" lon="-0.31293">
        <ele>2306.7790527344</ele>
        <time>2014-03-11T13:46:50Z</time>
      </trkpt>
      <trkpt lat="42.84125" lon="-0.3128">
        <ele>2308.9819335938</ele>
        <time>2014-03-11T13:47:08Z</time>
      </trkpt>
      <trkpt lat="42.84124" lon="-0.31272">
        <ele>2311.2419433594</ele>
        <time>2014-03-11T13:47:25Z</time>
      </trkpt>
      <trkpt lat="42.84134" lon="-0.31286">
        <ele>2313.5139160156</ele>
        <time>2014-03-11T13:47:42Z</time>
      </trkpt>
      <trkpt lat="42.84141" lon="-0.31293">
        <ele>2314.7639160156</ele>
        <time>2014-03-11T13:47:57Z</time>
      </trkpt>
      <trkpt lat="42.84155" lon="-0.31302">
        <ele>2317.4838867188</ele>
        <time>2014-03-11T13:48:17Z</time>
      </trkpt>
      <trkpt lat="42.84166" lon="-0.31311">
        <ele>2320.6450195312</ele>
        <time>2014-03-11T13:48:40Z</time>
      </trkpt>
      <trkpt lat="42.84169" lon="-0.31315">
        <ele>2322.0659179688</ele>
        <time>2014-03-11T13:48:55Z</time>
      </trkpt>
      <trkpt lat="42.84167" lon="-0.31303">
        <ele>2322.9689941406</ele>
        <time>2014-03-11T13:49:06Z</time>
      </trkpt>
      <trkpt lat="42.84167" lon="-0.31286">
        <ele>2326.1889648438</ele>
        <time>2014-03-11T13:49:26Z</time>
      </trkpt>
      <trkpt lat="42.84166" lon="-0.31277">
        <ele>2327.7790527344</ele>
        <time>2014-03-11T13:49:39Z</time>
      </trkpt>
      <trkpt lat="42.84174" lon="-0.31285">
        <ele>2329.4729003906</ele>
        <time>2014-03-11T13:49:55Z</time>
      </trkpt>
      <trkpt lat="42.84179" lon="-0.31299">
        <ele>2331.4150390625</ele>
        <time>2014-03-11T13:50:13Z</time>
      </trkpt>
      <trkpt lat="42.84185" lon="-0.31302">
        <ele>2334.462890625</ele>
        <time>2014-03-11T13:50:38Z</time>
      </trkpt>
      <trkpt lat="42.84185" lon="-0.31285">
        <ele>2336.45703125</ele>
        <time>2014-03-11T13:50:56Z</time>
      </trkpt>
      <trkpt lat="42.84185" lon="-0.31272">
        <ele>2338.8588867188</ele>
        <time>2014-03-11T13:51:15Z</time>
      </trkpt>
      <trkpt lat="42.84185" lon="-0.31267">
        <ele>2340.5659179688</ele>
        <time>2014-03-11T13:51:31Z</time>
      </trkpt>
      <trkpt lat="42.84194" lon="-0.31274">
        <ele>2342.4350585938</ele>
        <time>2014-03-11T13:51:44Z</time>
      </trkpt>
      <trkpt lat="42.84201" lon="-0.31286">
        <ele>2345.1608886719</ele>
        <time>2014-03-11T13:52:03Z</time>
      </trkpt>
      <trkpt lat="42.84208" lon="-0.31296">
        <ele>2346.6979980469</ele>
        <time>2014-03-11T13:52:21Z</time>
      </trkpt>
      <trkpt lat="42.84209" lon="-0.31284">
        <ele>2349.2490234375</ele>
        <time>2014-03-11T13:52:39Z</time>
      </trkpt>
      <trkpt lat="42.84211" lon="-0.31266">
        <ele>2352.0610351562</ele>
        <time>2014-03-11T13:53:01Z</time>
      </trkpt>
      <trkpt lat="42.84211" lon="-0.31252">
        <ele>2354.7790527344</ele>
        <time>2014-03-11T13:53:24Z</time>
      </trkpt>
      <trkpt lat="42.84217" lon="-0.31263">
        <ele>2356.1599121094</ele>
        <time>2014-03-11T13:53:37Z</time>
      </trkpt>
      <trkpt lat="42.84226" lon="-0.31272">
        <ele>2358.3068847656</ele>
        <time>2014-03-11T13:53:52Z</time>
      </trkpt>
      <trkpt lat="42.84232" lon="-0.31288">
        <ele>2361.1320800781</ele>
        <time>2014-03-11T13:54:15Z</time>
      </trkpt>
      <trkpt lat="42.84238" lon="-0.31293">
        <ele>2363.208984375</ele>
        <time>2014-03-11T13:54:37Z</time>
      </trkpt>
      <trkpt lat="42.84241" lon="-0.31282">
        <ele>2365.3920898438</ele>
        <time>2014-03-11T13:54:52Z</time>
      </trkpt>
      <trkpt lat="42.84242" lon="-0.31264">
        <ele>2368.2438964844</ele>
        <time>2014-03-11T13:55:13Z</time>
      </trkpt>
      <trkpt lat="42.84242" lon="-0.31246">
        <ele>2371.6520996094</ele>
        <time>2014-03-11T13:55:36Z</time>
      </trkpt>
      <trkpt lat="42.84243" lon="-0.31229">
        <ele>2374.0869140625</ele>
        <time>2014-03-11T13:56:02Z</time>
      </trkpt>
      <trkpt lat="42.84251" lon="-0.31245">
        <ele>2376.6149902344</ele>
        <time>2014-03-11T13:56:20Z</time>
      </trkpt>
      <trkpt lat="42.84259" lon="-0.31254">
        <ele>2379.251953125</ele>
        <time>2014-03-11T13:56:37Z</time>
      </trkpt>
      <trkpt lat="42.84268" lon="-0.31264">
        <ele>2381.3049316406</ele>
        <time>2014-03-11T13:56:56Z</time>
      </trkpt>
      <trkpt lat="42.84279" lon="-0.31267">
        <ele>2383.1931152344</ele>
        <time>2014-03-11T13:57:11Z</time>
      </trkpt>
      <trkpt lat="42.84285" lon="-0.31271">
        <ele>2384.8930664062</ele>
        <time>2014-03-11T13:57:24Z</time>
      </trkpt>
      <trkpt lat="42.84294" lon="-0.31282">
        <ele>2387.5180664062</ele>
        <time>2014-03-11T13:57:41Z</time>
      </trkpt>
      <trkpt lat="42.84295" lon="-0.313">
        <ele>2390.6569824219</ele>
        <time>2014-03-11T13:58:04Z</time>
      </trkpt>
      <trkpt lat="42.84299" lon="-0.31315">
        <ele>2393.62109375</ele>
        <time>2014-03-11T13:58:24Z</time>
      </trkpt>
      <trkpt lat="42.84303" lon="-0.31331">
        <ele>2396.1640625</ele>
        <time>2014-03-11T13:58:44Z</time>
      </trkpt>
      <trkpt lat="42.84303" lon="-0.31347">
        <ele>2398.1140136719</ele>
        <time>2014-03-11T13:59:02Z</time>
      </trkpt>
      <trkpt lat="42.84303" lon="-0.31366">
        <ele>2401.4509277344</ele>
        <time>2014-03-11T13:59:25Z</time>
      </trkpt>
      <trkpt lat="42.84298" lon="-0.3138">
        <ele>2404.1420898438</ele>
        <time>2014-03-11T13:59:44Z</time>
      </trkpt>
      <trkpt lat="42.84297" lon="-0.31395">
        <ele>2407.1420898438</ele>
        <time>2014-03-11T14:00:03Z</time>
      </trkpt>
      <trkpt lat="42.84296" lon="-0.31418">
        <ele>2409.8159179688</ele>
        <time>2014-03-11T14:00:27Z</time>
      </trkpt>
      <trkpt lat="42.84294" lon="-0.31433">
        <ele>2411.9770507812</ele>
        <time>2014-03-11T14:00:40Z</time>
      </trkpt>
      <trkpt lat="42.84295" lon="-0.31441">
        <ele>2414.25</ele>
        <time>2014-03-11T14:01:00Z</time>
      </trkpt>
      <trkpt lat="42.84304" lon="-0.31431">
        <ele>2415.5048828125</ele>
        <time>2014-03-11T14:01:25Z</time>
      </trkpt>
      <trkpt lat="42.84314" lon="-0.31419">
        <ele>2418.6831054688</ele>
        <time>2014-03-11T14:01:44Z</time>
      </trkpt>
      <trkpt lat="42.84327" lon="-0.314">
        <ele>2421.4409179688</ele>
        <time>2014-03-11T14:02:09Z</time>
      </trkpt>
      <trkpt lat="42.84335" lon="-0.31396">
        <ele>2423.1899414062</ele>
        <time>2014-03-11T14:02:27Z</time>
      </trkpt>
      <trkpt lat="42.84333" lon="-0.31418">
        <ele>2426.2241210938</ele>
        <time>2014-03-11T14:02:45Z</time>
      </trkpt>
      <trkpt lat="42.84334" lon="-0.31433">
        <ele>2427.9289550781</ele>
        <time>2014-03-11T14:03:04Z</time>
      </trkpt>
      <trkpt lat="42.84335" lon="-0.31448">
        <ele>2430.7661132812</ele>
        <time>2014-03-11T14:03:23Z</time>
      </trkpt>
      <trkpt lat="42.84334" lon="-0.31451">
        <ele>2430.9260253906</ele>
        <time>2014-03-11T14:03:25Z</time>
      </trkpt>
      <trkpt lat="42.84341" lon="-0.31446">
        <ele>2432.3200683594</ele>
        <time>2014-03-11T14:03:38Z</time>
      </trkpt>
      <trkpt lat="42.84349" lon="-0.31437">
        <ele>2434.1870117188</ele>
        <time>2014-03-11T14:03:55Z</time>
      </trkpt>
      <trkpt lat="42.84359" lon="-0.31425">
        <ele>2436.1818847656</ele>
        <time>2014-03-11T14:04:11Z</time>
      </trkpt>
      <trkpt lat="42.84366" lon="-0.31415">
        <ele>2438.4838867188</ele>
        <time>2014-03-11T14:04:30Z</time>
      </trkpt>
      <trkpt lat="42.84365" lon="-0.31433">
        <ele>2441.5739746094</ele>
        <time>2014-03-11T14:04:52Z</time>
      </trkpt>
      <trkpt lat="42.84364" lon="-0.31449">
        <ele>2443.4719238281</ele>
        <time>2014-03-11T14:05:08Z</time>
      </trkpt>
      <trkpt lat="42.84364" lon="-0.31463">
        <ele>2445.5590820312</ele>
        <time>2014-03-11T14:05:25Z</time>
      </trkpt>
      <trkpt lat="42.84361" lon="-0.31476">
        <ele>2447.1440429688</ele>
        <time>2014-03-11T14:05:40Z</time>
      </trkpt>
      <trkpt lat="42.84359" lon="-0.31478">
        <ele>2447.8491210938</ele>
        <time>2014-03-11T14:05:42Z</time>
      </trkpt>
      <trkpt lat="42.84364" lon="-0.3148">
        <ele>2448.7119140625</ele>
        <time>2014-03-11T14:05:58Z</time>
      </trkpt>
      <trkpt lat="42.84377" lon="-0.31467">
        <ele>2451.25</ele>
        <time>2014-03-11T14:06:19Z</time>
      </trkpt>
      <trkpt lat="42.84385" lon="-0.31457">
        <ele>2454.7260742188</ele>
        <time>2014-03-11T14:06:41Z</time>
      </trkpt>
      <trkpt lat="42.84386" lon="-0.31464">
        <ele>2455.4541015625</ele>
        <time>2014-03-11T14:06:55Z</time>
      </trkpt>
      <trkpt lat="42.84381" lon="-0.31486">
        <ele>2458.7629394531</ele>
        <time>2014-03-11T14:07:18Z</time>
      </trkpt>
      <trkpt lat="42.84377" lon="-0.31502">
        <ele>2461.7880859375</ele>
        <time>2014-03-11T14:07:41Z</time>
      </trkpt>
      <trkpt lat="42.84373" lon="-0.31517">
        <ele>2463.9270019531</ele>
        <time>2014-03-11T14:08:00Z</time>
      </trkpt>
      <trkpt lat="42.8437" lon="-0.31532">
        <ele>2465.5080566406</ele>
        <time>2014-03-11T14:08:15Z</time>
      </trkpt>
      <trkpt lat="42.84367" lon="-0.3154">
        <ele>2466.4230957031</ele>
        <time>2014-03-11T14:08:24Z</time>
      </trkpt>
      <trkpt lat="42.84366" lon="-0.31551">
        <ele>2468.6931152344</ele>
        <time>2014-03-11T14:08:43Z</time>
      </trkpt>
      <trkpt lat="42.84373" lon="-0.31546">
        <ele>2469.8579101562</ele>
        <time>2014-03-11T14:08:57Z</time>
      </trkpt>
      <trkpt lat="42.84387" lon="-0.31541">
        <ele>2472.9509277344</ele>
        <time>2014-03-11T14:09:18Z</time>
      </trkpt>
      <trkpt lat="42.84401" lon="-0.31534">
        <ele>2475.3439941406</ele>
        <time>2014-03-11T14:09:40Z</time>
      </trkpt>
      <trkpt lat="42.84403" lon="-0.31548">
        <ele>2478.0400390625</ele>
        <time>2014-03-11T14:10:02Z</time>
      </trkpt>
      <trkpt lat="42.844" lon="-0.31563">
        <ele>2480.1159667969</ele>
        <time>2014-03-11T14:10:20Z</time>
      </trkpt>
      <trkpt lat="42.84394" lon="-0.31578">
        <ele>2482.9370117188</ele>
        <time>2014-03-11T14:10:41Z</time>
      </trkpt>
      <trkpt lat="42.84383" lon="-0.31587">
        <ele>2485.291015625</ele>
        <time>2014-03-11T14:11:00Z</time>
      </trkpt>
      <trkpt lat="42.84375" lon="-0.31596">
        <ele>2487.6479492188</ele>
        <time>2014-03-11T14:11:20Z</time>
      </trkpt>
      <trkpt lat="42.8437" lon="-0.31607">
        <ele>2489.6779785156</ele>
        <time>2014-03-11T14:11:41Z</time>
      </trkpt>
      <trkpt lat="42.84377" lon="-0.31607">
        <ele>2491.1469726562</ele>
        <time>2014-03-11T14:12:00Z</time>
      </trkpt>
      <trkpt lat="42.84388" lon="-0.31609">
        <ele>2493.2749023438</ele>
        <time>2014-03-11T14:13:56Z</time>
      </trkpt>
      <trkpt lat="42.84397" lon="-0.31611">
        <ele>2495.4499511719</ele>
        <time>2014-03-11T14:14:11Z</time>
      </trkpt>
      <trkpt lat="42.84412" lon="-0.3161">
        <ele>2498.3740234375</ele>
        <time>2014-03-11T14:14:32Z</time>
      </trkpt>
      <trkpt lat="42.84404" lon="-0.31622">
        <ele>2500.1770019531</ele>
        <time>2014-03-11T14:14:50Z</time>
      </trkpt>
      <trkpt lat="42.84394" lon="-0.31635">
        <ele>2503.3520507812</ele>
        <time>2014-03-11T14:15:12Z</time>
      </trkpt>
      <trkpt lat="42.84388" lon="-0.31641">
        <ele>2504.8601074219</ele>
        <time>2014-03-11T14:15:27Z</time>
      </trkpt>
      <trkpt lat="42.84384" lon="-0.31651">
        <ele>2506.7509765625</ele>
        <time>2014-03-11T14:15:41Z</time>
      </trkpt>
      <trkpt lat="42.84383" lon="-0.31662">
        <ele>2508.5869140625</ele>
        <time>2014-03-11T14:16:22Z</time>
      </trkpt>
      <trkpt lat="42.84388" lon="-0.31682">
        <ele>2511.6960449219</ele>
        <time>2014-03-11T14:16:45Z</time>
      </trkpt>
      <trkpt lat="42.84392" lon="-0.31695">
        <ele>2513.791015625</ele>
        <time>2014-03-11T14:17:01Z</time>
      </trkpt>
      <trkpt lat="42.84391" lon="-0.31703">
        <ele>2515.5930175781</ele>
        <time>2014-03-11T14:17:19Z</time>
      </trkpt>
      <trkpt lat="42.84403" lon="-0.31701">
        <ele>2518.2150878906</ele>
        <time>2014-03-11T14:17:36Z</time>
      </trkpt>
      <trkpt lat="42.84405" lon="-0.31707">
        <ele>2519.9331054688</ele>
        <time>2014-03-11T14:17:53Z</time>
      </trkpt>
      <trkpt lat="42.84404" lon="-0.31715">
        <ele>2521.2629394531</ele>
        <time>2014-03-11T14:18:00Z</time>
      </trkpt>
      <trkpt lat="42.84398" lon="-0.31727">
        <ele>2523.037109375</ele>
        <time>2014-03-11T14:18:16Z</time>
      </trkpt>
      <trkpt lat="42.84398" lon="-0.31744">
        <ele>2524.1359863281</ele>
        <time>2014-03-11T14:18:37Z</time>
      </trkpt>
      <trkpt lat="42.84397" lon="-0.3175">
        <ele>2522.7429199219</ele>
        <time>2014-03-11T14:43:19Z</time>
      </trkpt>
      <trkpt lat="42.84394" lon="-0.31743">
        <ele>2519.7109375</ele>
        <time>2014-03-11T14:43:45Z</time>
      </trkpt>
      <trkpt lat="42.84394" lon="-0.31743">
        <ele>2516.66796875</ele>
        <time>2014-03-11T14:44:28Z</time>
      </trkpt>
      <trkpt lat="42.84394" lon="-0.31743">
        <ele>2516.5700683594</ele>
        <time>2014-03-11T14:45:12Z</time>
      </trkpt>
      <trkpt lat="42.84396" lon="-0.31745">
        <ele>2516.4399414062</ele>
        <time>2014-03-11T14:46:21Z</time>
      </trkpt>
      <trkpt lat="42.84396" lon="-0.31746">
        <ele>2516.4819335938</ele>
        <time>2014-03-11T14:46:26Z</time>
      </trkpt>
      <trkpt lat="42.84398" lon="-0.31756">
        <ele>2514.8959960938</ele>
        <time>2014-03-11T14:46:34Z</time>
      </trkpt>
      <trkpt lat="42.84404" lon="-0.31752">
        <ele>2513.6000976562</ele>
        <time>2014-03-11T14:46:37Z</time>
      </trkpt>
      <trkpt lat="42.84407" lon="-0.3175">
        <ele>2513.625</ele>
        <time>2014-03-11T14:46:41Z</time>
      </trkpt>
      <trkpt lat="42.84406" lon="-0.31763">
        <ele>2511.2680664062</ele>
        <time>2014-03-11T14:46:44Z</time>
      </trkpt>
      <trkpt lat="42.84404" lon="-0.31771">
        <ele>2507.1989746094</ele>
        <time>2014-03-11T14:46:45Z</time>
      </trkpt>
      <trkpt lat="42.84404" lon="-0.31778">
        <ele>2507.1989746094</ele>
        <time>2014-03-11T14:46:46Z</time>
      </trkpt>
      <trkpt lat="42.84403" lon="-0.31788">
        <ele>2505.1760253906</ele>
        <time>2014-03-11T14:46:48Z</time>
      </trkpt>
      <trkpt lat="42.84404" lon="-0.31792">
        <ele>2501.9890136719</ele>
        <time>2014-03-11T14:46:50Z</time>
      </trkpt>
      <trkpt lat="42.84411" lon="-0.31787">
        <ele>2497.7590332031</ele>
        <time>2014-03-11T14:46:52Z</time>
      </trkpt>
      <trkpt lat="42.84414" lon="-0.31784">
        <ele>2497.7580566406</ele>
        <time>2014-03-11T14:46:53Z</time>
      </trkpt>
      <trkpt lat="42.84417" lon="-0.3178">
        <ele>2496.212890625</ele>
        <time>2014-03-11T14:46:55Z</time>
      </trkpt>
      <trkpt lat="42.84418" lon="-0.31779">
        <ele>2496.7810058594</ele>
        <time>2014-03-11T14:47:14Z</time>
      </trkpt>
      <trkpt lat="42.84429" lon="-0.31791">
        <ele>2494.0109863281</ele>
        <time>2014-03-11T14:47:18Z</time>
      </trkpt>
      <trkpt lat="42.84432" lon="-0.31793">
        <ele>2489.8540039062</ele>
        <time>2014-03-11T14:47:19Z</time>
      </trkpt>
      <trkpt lat="42.84434" lon="-0.31798">
        <ele>2487.5791015625</ele>
        <time>2014-03-11T14:47:20Z</time>
      </trkpt>
      <trkpt lat="42.8444" lon="-0.31812">
        <ele>2483.9670410156</ele>
        <time>2014-03-11T14:47:23Z</time>
      </trkpt>
      <trkpt lat="42.84441" lon="-0.31824">
        <ele>2481.1379394531</ele>
        <time>2014-03-11T14:47:25Z</time>
      </trkpt>
      <trkpt lat="42.84447" lon="-0.31832">
        <ele>2475.2529296875</ele>
        <time>2014-03-11T14:47:27Z</time>
      </trkpt>
      <trkpt lat="42.84449" lon="-0.31837">
        <ele>2475.2570800781</ele>
        <time>2014-03-11T14:47:28Z</time>
      </trkpt>
      <trkpt lat="42.84456" lon="-0.31863">
        <ele>2468.45703125</ele>
        <time>2014-03-11T14:47:32Z</time>
      </trkpt>
      <trkpt lat="42.84459" lon="-0.31867">
        <ele>2465.0949707031</ele>
        <time>2014-03-11T14:47:33Z</time>
      </trkpt>
      <trkpt lat="42.84465" lon="-0.3187">
        <ele>2461.2819824219</ele>
        <time>2014-03-11T14:47:34Z</time>
      </trkpt>
      <trkpt lat="42.84471" lon="-0.31868">
        <ele>2461.2858886719</ele>
        <time>2014-03-11T14:47:35Z</time>
      </trkpt>
      <trkpt lat="42.84482" lon="-0.31866">
        <ele>2458.8959960938</ele>
        <time>2014-03-11T14:47:37Z</time>
      </trkpt>
      <trkpt lat="42.84486" lon="-0.31864">
        <ele>2458.7629394531</ele>
        <time>2014-03-11T14:47:38Z</time>
      </trkpt>
      <trkpt lat="42.84499" lon="-0.31862">
        <ele>2455.5920410156</ele>
        <time>2014-03-11T14:47:41Z</time>
      </trkpt>
      <trkpt lat="42.84505" lon="-0.31861">
        <ele>2455.5969238281</ele>
        <time>2014-03-11T14:47:42Z</time>
      </trkpt>
      <trkpt lat="42.84512" lon="-0.31861">
        <ele>2451.7819824219</ele>
        <time>2014-03-11T14:47:43Z</time>
      </trkpt>
      <trkpt lat="42.84518" lon="-0.3186">
        <ele>2451.787109375</ele>
        <time>2014-03-11T14:47:44Z</time>
      </trkpt>
      <trkpt lat="42.84529" lon="-0.31861">
        <ele>2449.5390625</ele>
        <time>2014-03-11T14:47:46Z</time>
      </trkpt>
      <trkpt lat="42.84544" lon="-0.31866">
        <ele>2446.6220703125</ele>
        <time>2014-03-11T14:47:49Z</time>
      </trkpt>
      <trkpt lat="42.8455" lon="-0.31868">
        <ele>2445.7419433594</ele>
        <time>2014-03-11T14:47:50Z</time>
      </trkpt>
      <trkpt lat="42.84562" lon="-0.3188">
        <ele>2446.2370605469</ele>
        <time>2014-03-11T14:47:58Z</time>
      </trkpt>
      <trkpt lat="42.8456" lon="-0.31879">
        <ele>2445.0358886719</ele>
        <time>2014-03-11T14:48:25Z</time>
      </trkpt>
      <trkpt lat="42.84561" lon="-0.31881">
        <ele>2445.2800292969</ele>
        <time>2014-03-11T14:48:56Z</time>
      </trkpt>
      <trkpt lat="42.84565" lon="-0.31892">
        <ele>2443.6430664062</ele>
        <time>2014-03-11T14:49:01Z</time>
      </trkpt>
      <trkpt lat="42.84564" lon="-0.31901">
        <ele>2441.5439453125</ele>
        <time>2014-03-11T14:49:03Z</time>
      </trkpt>
      <trkpt lat="42.84565" lon="-0.31903">
        <ele>2438.1979980469</ele>
        <time>2014-03-11T14:49:04Z</time>
      </trkpt>
      <trkpt lat="42.84565" lon="-0.31907">
        <ele>2438.2009277344</ele>
        <time>2014-03-11T14:49:05Z</time>
      </trkpt>
      <trkpt lat="42.84566" lon="-0.31914">
        <ele>2436.0639648438</ele>
        <time>2014-03-11T14:49:07Z</time>
      </trkpt>
      <trkpt lat="42.84567" lon="-0.31925">
        <ele>2431.1818847656</ele>
        <time>2014-03-11T14:49:10Z</time>
      </trkpt>
      <trkpt lat="42.84565" lon="-0.31932">
        <ele>2428.2839355469</ele>
        <time>2014-03-11T14:49:11Z</time>
      </trkpt>
      <trkpt lat="42.84568" lon="-0.31944">
        <ele>2424.6530761719</ele>
        <time>2014-03-11T14:49:13Z</time>
      </trkpt>
      <trkpt lat="42.84565" lon="-0.31955">
        <ele>2421.625</ele>
        <time>2014-03-11T14:49:15Z</time>
      </trkpt>
      <trkpt lat="42.84563" lon="-0.31959">
        <ele>2421.6311035156</ele>
        <time>2014-03-11T14:49:16Z</time>
      </trkpt>
      <trkpt lat="42.84556" lon="-0.31966">
        <ele>2419.2839355469</ele>
        <time>2014-03-11T14:49:18Z</time>
      </trkpt>
      <trkpt lat="42.84549" lon="-0.31977">
        <ele>2417.7290039062</ele>
        <time>2014-03-11T14:49:20Z</time>
      </trkpt>
      <trkpt lat="42.84552" lon="-0.31987">
        <ele>2415.9660644531</ele>
        <time>2014-03-11T14:49:23Z</time>
      </trkpt>
      <trkpt lat="42.84557" lon="-0.31995">
        <ele>2413.2390136719</ele>
        <time>2014-03-11T14:49:25Z</time>
      </trkpt>
      <trkpt lat="42.8456" lon="-0.32009">
        <ele>2410.1889648438</ele>
        <time>2014-03-11T14:49:27Z</time>
      </trkpt>
      <trkpt lat="42.84561" lon="-0.32025">
        <ele>2407.6240234375</ele>
        <time>2014-03-11T14:49:29Z</time>
      </trkpt>
      <trkpt lat="42.84568" lon="-0.32035">
        <ele>2405.8869628906</ele>
        <time>2014-03-11T14:49:31Z</time>
      </trkpt>
      <trkpt lat="42.84571" lon="-0.32045">
        <ele>2404.8969726562</ele>
        <time>2014-03-11T14:49:33Z</time>
      </trkpt>
      <trkpt lat="42.84578" lon="-0.3205">
        <ele>2403.99609375</ele>
        <time>2014-03-11T14:49:35Z</time>
      </trkpt>
      <trkpt lat="42.84576" lon="-0.32061">
        <ele>2401.3039550781</ele>
        <time>2014-03-11T14:49:39Z</time>
      </trkpt>
      <trkpt lat="42.84568" lon="-0.32068">
        <ele>2399.5590820312</ele>
        <time>2014-03-11T14:49:41Z</time>
      </trkpt>
      <trkpt lat="42.84561" lon="-0.32087">
        <ele>2397.99609375</ele>
        <time>2014-03-11T14:49:44Z</time>
      </trkpt>
      <trkpt lat="42.84557" lon="-0.32101">
        <ele>2392.0029296875</ele>
        <time>2014-03-11T14:49:46Z</time>
      </trkpt>
      <trkpt lat="42.84553" lon="-0.32107">
        <ele>2392.0139160156</ele>
        <time>2014-03-11T14:49:47Z</time>
      </trkpt>
      <trkpt lat="42.84554" lon="-0.32116">
        <ele>2392.3059082031</ele>
        <time>2014-03-11T14:49:49Z</time>
      </trkpt>
      <trkpt lat="42.84565" lon="-0.32129">
        <ele>2389.7329101562</ele>
        <time>2014-03-11T14:49:52Z</time>
      </trkpt>
      <trkpt lat="42.84565" lon="-0.3214">
        <ele>2387.5170898438</ele>
        <time>2014-03-11T14:49:54Z</time>
      </trkpt>
      <trkpt lat="42.84572" lon="-0.32152">
        <ele>2385.3940429688</ele>
        <time>2014-03-11T14:49:56Z</time>
      </trkpt>
      <trkpt lat="42.84579" lon="-0.32162">
        <ele>2383.9580078125</ele>
        <time>2014-03-11T14:49:58Z</time>
      </trkpt>
      <trkpt lat="42.84585" lon="-0.32182">
        <ele>2381.1850585938</ele>
        <time>2014-03-11T14:50:01Z</time>
      </trkpt>
      <trkpt lat="42.84594" lon="-0.32205">
        <ele>2378.2529296875</ele>
        <time>2014-03-11T14:50:05Z</time>
      </trkpt>
      <trkpt lat="42.84595" lon="-0.32217">
        <ele>2376.1750488281</ele>
        <time>2014-03-11T14:50:07Z</time>
      </trkpt>
      <trkpt lat="42.84589" lon="-0.32231">
        <ele>2371.7309570312</ele>
        <time>2014-03-11T14:50:09Z</time>
      </trkpt>
      <trkpt lat="42.84583" lon="-0.32245">
        <ele>2370.6159667969</ele>
        <time>2014-03-11T14:50:11Z</time>
      </trkpt>
      <trkpt lat="42.84588" lon="-0.32285">
        <ele>2365.6220703125</ele>
        <time>2014-03-11T14:50:16Z</time>
      </trkpt>
      <trkpt lat="42.84593" lon="-0.32293">
        <ele>2365.6259765625</ele>
        <time>2014-03-11T14:50:17Z</time>
      </trkpt>
      <trkpt lat="42.846" lon="-0.32309">
        <ele>2363.3930664062</ele>
        <time>2014-03-11T14:50:19Z</time>
      </trkpt>
      <trkpt lat="42.84612" lon="-0.32375">
        <ele>2360.75390625</ele>
        <time>2014-03-11T14:50:28Z</time>
      </trkpt>
      <trkpt lat="42.84616" lon="-0.32395">
        <ele>2359.2890625</ele>
        <time>2014-03-11T14:50:35Z</time>
      </trkpt>
      <trkpt lat="42.8462" lon="-0.32415">
        <ele>2357.7709960938</ele>
        <time>2014-03-11T14:51:24Z</time>
      </trkpt>
      <trkpt lat="42.84622" lon="-0.3242">
        <ele>2356.4809570312</ele>
        <time>2014-03-11T14:51:37Z</time>
      </trkpt>
      <trkpt lat="42.84621" lon="-0.32418">
        <ele>2356.5590820312</ele>
        <time>2014-03-11T14:52:00Z</time>
      </trkpt>
      <trkpt lat="42.84623" lon="-0.32418">
        <ele>2356.3200683594</ele>
        <time>2014-03-11T14:52:30Z</time>
      </trkpt>
      <trkpt lat="42.84624" lon="-0.32422">
        <ele>2355.958984375</ele>
        <time>2014-03-11T14:52:32Z</time>
      </trkpt>
      <trkpt lat="42.84632" lon="-0.32436">
        <ele>2353.6879882812</ele>
        <time>2014-03-11T14:52:36Z</time>
      </trkpt>
      <trkpt lat="42.84637" lon="-0.32442">
        <ele>2352.0690917969</ele>
        <time>2014-03-11T14:52:38Z</time>
      </trkpt>
      <trkpt lat="42.84665" lon="-0.32476">
        <ele>2348.8510742188</ele>
        <time>2014-03-11T14:52:49Z</time>
      </trkpt>
      <trkpt lat="42.84668" lon="-0.32482">
        <ele>2347.7858886719</ele>
        <time>2014-03-11T14:52:58Z</time>
      </trkpt>
      <trkpt lat="42.84661" lon="-0.32488">
        <ele>2345.7170410156</ele>
        <time>2014-03-11T14:53:01Z</time>
      </trkpt>
      <trkpt lat="42.8466" lon="-0.32493">
        <ele>2341.2250976562</ele>
        <time>2014-03-11T14:53:02Z</time>
      </trkpt>
      <trkpt lat="42.8466" lon="-0.32498">
        <ele>2341.2299804688</ele>
        <time>2014-03-11T14:53:03Z</time>
      </trkpt>
      <trkpt lat="42.84657" lon="-0.32512">
        <ele>2334.6411132812</ele>
        <time>2014-03-11T14:53:06Z</time>
      </trkpt>
      <trkpt lat="42.84653" lon="-0.32517">
        <ele>2329.8930664062</ele>
        <time>2014-03-11T14:53:07Z</time>
      </trkpt>
      <trkpt lat="42.84652" lon="-0.32525">
        <ele>2329.8989257812</ele>
        <time>2014-03-11T14:53:08Z</time>
      </trkpt>
      <trkpt lat="42.84655" lon="-0.32533">
        <ele>2325.8649902344</ele>
        <time>2014-03-11T14:53:09Z</time>
      </trkpt>
      <trkpt lat="42.84656" lon="-0.32542">
        <ele>2325.873046875</ele>
        <time>2014-03-11T14:53:10Z</time>
      </trkpt>
      <trkpt lat="42.84651" lon="-0.32554">
        <ele>2320.0439453125</ele>
        <time>2014-03-11T14:53:12Z</time>
      </trkpt>
      <trkpt lat="42.84647" lon="-0.32561">
        <ele>2320.0520019531</ele>
        <time>2014-03-11T14:53:13Z</time>
      </trkpt>
      <trkpt lat="42.84648" lon="-0.32568">
        <ele>2317.0190429688</ele>
        <time>2014-03-11T14:53:14Z</time>
      </trkpt>
      <trkpt lat="42.84652" lon="-0.32573">
        <ele>2317.0258789062</ele>
        <time>2014-03-11T14:53:15Z</time>
      </trkpt>
      <trkpt lat="42.84646" lon="-0.32587">
        <ele>2313.5458984375</ele>
        <time>2014-03-11T14:53:18Z</time>
      </trkpt>
      <trkpt lat="42.84632" lon="-0.3261">
        <ele>2305.1931152344</ele>
        <time>2014-03-11T14:53:21Z</time>
      </trkpt>
      <trkpt lat="42.84626" lon="-0.3262">
        <ele>2305.2019042969</ele>
        <time>2014-03-11T14:53:22Z</time>
      </trkpt>
      <trkpt lat="42.84618" lon="-0.32626">
        <ele>2299.4641113281</ele>
        <time>2014-03-11T14:53:23Z</time>
      </trkpt>
      <trkpt lat="42.84603" lon="-0.32657">
        <ele>2296.373046875</ele>
        <time>2014-03-11T14:53:27Z</time>
      </trkpt>
      <trkpt lat="42.84602" lon="-0.32669">
        <ele>2291.7290039062</ele>
        <time>2014-03-11T14:53:28Z</time>
      </trkpt>
      <trkpt lat="42.84602" lon="-0.32695">
        <ele>2289.794921875</ele>
        <time>2014-03-11T14:53:30Z</time>
      </trkpt>
      <trkpt lat="42.84597" lon="-0.32706">
        <ele>2294.1149902344</ele>
        <time>2014-03-11T14:53:32Z</time>
      </trkpt>
      <trkpt lat="42.84594" lon="-0.32712">
        <ele>2294.7419433594</ele>
        <time>2014-03-11T14:53:34Z</time>
      </trkpt>
      <trkpt lat="42.84592" lon="-0.32715">
        <ele>2294.7971191406</ele>
        <time>2014-03-11T14:53:35Z</time>
      </trkpt>
      <trkpt lat="42.84594" lon="-0.3274">
        <ele>2293.8449707031</ele>
        <time>2014-03-11T14:53:43Z</time>
      </trkpt>
      <trkpt lat="42.84607" lon="-0.32783">
        <ele>2292.9370117188</ele>
        <time>2014-03-11T14:53:57Z</time>
      </trkpt>
      <trkpt lat="42.84616" lon="-0.32819">
        <ele>2291.2858886719</ele>
        <time>2014-03-11T14:54:09Z</time>
      </trkpt>
      <trkpt lat="42.84615" lon="-0.32824">
        <ele>2290.5390625</ele>
        <time>2014-03-11T14:54:23Z</time>
      </trkpt>
      <trkpt lat="42.84615" lon="-0.32824">
        <ele>2290.9509277344</ele>
        <time>2014-03-11T14:54:58Z</time>
      </trkpt>
      <trkpt lat="42.84605" lon="-0.32833">
        <ele>2288.9450683594</ele>
        <time>2014-03-11T14:55:09Z</time>
      </trkpt>
      <trkpt lat="42.84589" lon="-0.32831">
        <ele>2288.666015625</ele>
        <time>2014-03-11T14:55:41Z</time>
      </trkpt>
      <trkpt lat="42.84579" lon="-0.32826">
        <ele>2287.4418945312</ele>
        <time>2014-03-11T14:55:56Z</time>
      </trkpt>
      <trkpt lat="42.84576" lon="-0.32823">
        <ele>2287.5190429688</ele>
        <time>2014-03-11T14:56:30Z</time>
      </trkpt>
      <trkpt lat="42.84573" lon="-0.32827">
        <ele>2287.2810058594</ele>
        <time>2014-03-11T14:56:41Z</time>
      </trkpt>
      <trkpt lat="42.84574" lon="-0.32833">
        <ele>2285.5830078125</ele>
        <time>2014-03-11T14:56:43Z</time>
      </trkpt>
      <trkpt lat="42.84575" lon="-0.32834">
        <ele>2284.5729980469</ele>
        <time>2014-03-11T14:56:44Z</time>
      </trkpt>
      <trkpt lat="42.84573" lon="-0.32835">
        <ele>2283.7958984375</ele>
        <time>2014-03-11T14:56:46Z</time>
      </trkpt>
      <trkpt lat="42.84575" lon="-0.32839">
        <ele>2282.9689941406</ele>
        <time>2014-03-11T14:56:52Z</time>
      </trkpt>
      <trkpt lat="42.84578" lon="-0.32848">
        <ele>2281.6101074219</ele>
        <time>2014-03-11T14:57:05Z</time>
      </trkpt>
      <trkpt lat="42.84578" lon="-0.32847">
        <ele>2281.4221191406</ele>
        <time>2014-03-11T14:57:23Z</time>
      </trkpt>
      <trkpt lat="42.8458" lon="-0.32855">
        <ele>2280.1350097656</ele>
        <time>2014-03-11T14:57:26Z</time>
      </trkpt>
      <trkpt lat="42.84592" lon="-0.32874">
        <ele>2277.837890625</ele>
        <time>2014-03-11T14:57:30Z</time>
      </trkpt>
      <trkpt lat="42.84595" lon="-0.32879">
        <ele>2277.3249511719</ele>
        <time>2014-03-11T14:57:31Z</time>
      </trkpt>
      <trkpt lat="42.84606" lon="-0.32895">
        <ele>2275.3081054688</ele>
        <time>2014-03-11T14:57:34Z</time>
      </trkpt>
      <trkpt lat="42.84613" lon="-0.32905">
        <ele>2272.8588867188</ele>
        <time>2014-03-11T14:57:42Z</time>
      </trkpt>
    </trkseg>
  </trk>
</gpx>